UAE310 OMDB-ZSHC
Flight info
| Callsign | UAE310 |
|---|---|
| Flight time | 8h 10m |
| Altitude | 37000 |
| Route | IVURO DCT LALDO B505 NADSO B524 ALPOR G216 LAKIV DCT TELEM A791 EKIGA/N0486F390 A791 CEA B465 CTG A599 LINSO/K0893S1190 A599 SGM A581 HUY/K0885S1250 A581 WHA R343 UPLEL W95 SAPIN A470 IGRAT IGRAT81 |
| Aircraft | A359/H-SDE2E3GHIJ3J4J5LM1ORWXY/LB1D1 |
Departure
| Time | 2026-04-26 00:20 |
|---|---|
| Airport | Dubai International Airport (OMDB) |
Arrival
| Time | 2026-04-26 08:31 |
|---|---|
| Airport | Hangzhou Xiaoshan International Airport (ZSHC) |
| Time | Latitude | Longitude | Altitude | Speed | Heading |
|---|---|---|---|---|---|
| 2026-04-25 23:45 | 25.24137 | 55.37560 | 28 ft | 0 kts | 301° |
| 2026-04-26 00:06 | 25.24129 | 55.37574 | 28 ft | 4 kts | 301° |
| 2026-04-26 00:06 | 25.24115 | 55.37600 | 26 ft | 3 kts | 301° |
| 2026-04-26 00:06 | 25.24100 | 55.37623 | 26 ft | 4 kts | 319° |
| 2026-04-26 00:07 | 25.24078 | 55.37637 | 26 ft | 4 kts | 359° |
| 2026-04-26 00:07 | 25.24059 | 55.37632 | 27 ft | 3 kts | 31° |
| 2026-04-26 00:07 | 25.24036 | 55.37617 | 27 ft | 3 kts | 31° |
| 2026-04-26 00:07 | 25.24033 | 55.37615 | 27 ft | 4 kts | 31° |
| 2026-04-26 00:10 | 25.24034 | 55.37615 | 27 ft | 0 kts | 31° |
| 2026-04-26 00:11 | 25.24051 | 55.37627 | 26 ft | 4 kts | 33° |
| 2026-04-26 00:11 | 25.24070 | 55.37641 | 25 ft | 3 kts | 33° |
| 2026-04-26 00:14 | 25.24082 | 55.37650 | 26 ft | 3 kts | 33° |
| 2026-04-26 00:14 | 25.24101 | 55.37664 | 28 ft | 4 kts | 33° |
| 2026-04-26 00:14 | 25.24132 | 55.37685 | 28 ft | 6 kts | 31° |
| 2026-04-26 00:14 | 25.24172 | 55.37712 | 28 ft | 7 kts | 31° |
| 2026-04-26 00:15 | 25.24220 | 55.37744 | 28 ft | 9 kts | 31° |
| 2026-04-26 00:15 | 25.24265 | 55.37774 | 28 ft | 4 kts | 32° |
| 2026-04-26 00:15 | 25.24292 | 55.37793 | 28 ft | 5 kts | 32° |
| 2026-04-26 00:15 | 25.24325 | 55.37816 | 28 ft | 6 kts | 32° |
| 2026-04-26 00:16 | 25.24335 | 55.37823 | 28 ft | 0 kts | 32° |
| 2026-04-26 00:17 | 25.24353 | 55.37835 | 28 ft | 11 kts | 32° |
| 2026-04-26 00:17 | 25.24419 | 55.37882 | 28 ft | 12 kts | 32° |
| 2026-04-26 00:18 | 25.24489 | 55.37937 | 28 ft | 13 kts | 36° |
| 2026-04-26 00:18 | 25.24561 | 55.37996 | 28 ft | 14 kts | 36° |
| 2026-04-26 00:18 | 25.24644 | 55.38057 | 28 ft | 14 kts | 31° |
| 2026-04-26 00:18 | 25.24729 | 55.38103 | 28 ft | 12 kts | 13° |
| 2026-04-26 00:19 | 25.24788 | 55.38059 | 28 ft | 10 kts | 298° |
| 2026-04-26 00:19 | 25.24795 | 55.38046 | 28 ft | 0 kts | 301° |
| 2026-04-26 00:19 | 25.24872 | 55.37904 | 28 ft | 52 kts | 301° |
| 2026-04-26 00:20 | 25.25168 | 55.37376 | 28 ft | 108 kts | 301° |
| 2026-04-26 00:20 | 25.25650 | 55.36504 | 29 ft | 156 kts | 301° |
| 2026-04-26 00:20 | 25.26253 | 55.35399 | 414 ft | 166 kts | 301° |
| 2026-04-26 00:20 | 25.26812 | 55.34331 | 1111 ft | 157 kts | 301° |
| 2026-04-26 00:21 | 25.27356 | 55.33286 | 1682 ft | 159 kts | 303° |
| 2026-04-26 00:21 | 25.27999 | 55.32211 | 1898 ft | 176 kts | 307° |
| 2026-04-26 00:21 | 25.28732 | 55.31036 | 2165 ft | 195 kts | 306° |
| 2026-04-26 00:21 | 25.29619 | 55.29809 | 2397 ft | 215 kts | 323° |
| 2026-04-26 00:22 | 25.31050 | 55.29218 | 2759 ft | 227 kts | 359° |
| 2026-04-26 00:22 | 25.32595 | 55.29422 | 3536 ft | 222 kts | 7° |
| 2026-04-26 00:22 | 25.34117 | 55.29590 | 4243 ft | 218 kts | 1° |
| 2026-04-26 00:22 | 25.35621 | 55.29643 | 4949 ft | 214 kts | 1° |
| 2026-04-26 00:23 | 25.37130 | 55.29716 | 5478 ft | 219 kts | 2° |
| 2026-04-26 00:23 | 25.38676 | 55.29819 | 5968 ft | 227 kts | 2° |
| 2026-04-26 00:23 | 25.40271 | 55.30142 | 6304 ft | 244 kts | 22° |
| 2026-04-26 00:23 | 25.41625 | 55.31362 | 6624 ft | 263 kts | 53° |
| 2026-04-26 00:24 | 25.42631 | 55.33104 | 7135 ft | 272 kts | 54° |
| 2026-04-26 00:24 | 25.43691 | 55.34861 | 7762 ft | 277 kts | 52° |
| 2026-04-26 00:24 | 25.44833 | 55.36590 | 8487 ft | 278 kts | 49° |
| 2026-04-26 00:24 | 25.45624 | 55.37709 | 8965 ft | 279 kts | 48° |
| 2026-04-26 00:25 | 25.46867 | 55.39379 | 9572 ft | 284 kts | 47° |
| 2026-04-26 00:25 | 25.48125 | 55.41103 | 10141 ft | 292 kts | 48° |
| 2026-04-26 00:25 | 25.49407 | 55.42921 | 10517 ft | 308 kts | 49° |
| 2026-04-26 00:25 | 25.50745 | 55.44861 | 10806 ft | 326 kts | 49° |
| 2026-04-26 00:26 | 25.52007 | 55.47033 | 11074 ft | 347 kts | 62° |
| 2026-04-26 00:26 | 25.52596 | 55.49695 | 11317 ft | 368 kts | 87° |
| 2026-04-26 00:26 | 25.52165 | 55.52527 | 11669 ft | 382 kts | 111° |
| 2026-04-26 00:26 | 25.50895 | 55.55118 | 12215 ft | 386 kts | 123° |
| 2026-04-26 00:27 | 25.49417 | 55.57627 | 12812 ft | 390 kts | 125° |
| 2026-04-26 00:27 | 25.47933 | 55.60145 | 13434 ft | 392 kts | 125° |
| 2026-04-26 00:27 | 25.46452 | 55.62691 | 14079 ft | 394 kts | 125° |
| 2026-04-26 00:27 | 25.44975 | 55.65251 | 14749 ft | 395 kts | 125° |
| 2026-04-26 00:28 | 25.43514 | 55.67824 | 15420 ft | 396 kts | 124° |
| 2026-04-26 00:28 | 25.42382 | 55.70618 | 16058 ft | 401 kts | 110° |
| 2026-04-26 00:28 | 25.41676 | 55.73616 | 16700 ft | 403 kts | 107° |
| 2026-04-26 00:28 | 25.41049 | 55.76632 | 17330 ft | 403 kts | 107° |
| 2026-04-26 00:29 | 25.40422 | 55.79653 | 17968 ft | 403 kts | 107° |
| 2026-04-26 00:29 | 25.39787 | 55.82670 | 18635 ft | 402 kts | 107° |
| 2026-04-26 00:29 | 25.39150 | 55.85677 | 19287 ft | 401 kts | 107° |
| 2026-04-26 00:29 | 25.38511 | 55.88681 | 19934 ft | 401 kts | 107° |
| 2026-04-26 00:30 | 25.37872 | 55.91675 | 20585 ft | 400 kts | 107° |
| 2026-04-26 00:30 | 25.37232 | 55.94669 | 21209 ft | 400 kts | 107° |
| 2026-04-26 00:30 | 25.36596 | 55.97656 | 21813 ft | 400 kts | 106° |
| 2026-04-26 00:30 | 25.35962 | 56.00609 | 22359 ft | 401 kts | 106° |
| 2026-04-26 00:31 | 25.35317 | 56.03612 | 22868 ft | 402 kts | 105° |
| 2026-04-26 00:31 | 25.34667 | 56.06634 | 23353 ft | 405 kts | 105° |
| 2026-04-26 00:31 | 25.34014 | 56.09671 | 23797 ft | 407 kts | 105° |
| 2026-04-26 00:31 | 25.33355 | 56.12728 | 24195 ft | 411 kts | 105° |
| 2026-04-26 00:32 | 25.32809 | 56.15838 | 24675 ft | 414 kts | 99° |
| 2026-04-26 00:32 | 25.32499 | 56.19005 | 25154 ft | 415 kts | 96° |
| 2026-04-26 00:32 | 25.32115 | 56.25449 | 25795 ft | 425 kts | 94° |
| 2026-04-26 00:33 | 25.31956 | 56.28696 | 26368 ft | 423 kts | 92° |
| 2026-04-26 00:33 | 25.31795 | 56.31931 | 26819 ft | 423 kts | 91° |
| 2026-04-26 00:33 | 25.31622 | 56.35204 | 27136 ft | 428 kts | 91° |
| 2026-04-26 00:33 | 25.31442 | 56.38497 | 27455 ft | 431 kts | 90° |
| 2026-04-26 00:34 | 25.31253 | 56.41823 | 27734 ft | 436 kts | 90° |
| 2026-04-26 00:34 | 25.31058 | 56.45182 | 28046 ft | 440 kts | 90° |
| 2026-04-26 00:34 | 25.30858 | 56.48567 | 28334 ft | 444 kts | 90° |
| 2026-04-26 00:34 | 25.30655 | 56.51983 | 28632 ft | 447 kts | 90° |
| 2026-04-26 00:35 | 25.30448 | 56.55418 | 28992 ft | 449 kts | 90° |
| 2026-04-26 00:35 | 25.30051 | 56.58859 | 29305 ft | 455 kts | 97° |
| 2026-04-26 00:35 | 25.29213 | 56.62268 | 29619 ft | 462 kts | 105° |
| 2026-04-26 00:35 | 25.28090 | 56.65606 | 29920 ft | 466 kts | 107° |
| 2026-04-26 00:36 | 25.26872 | 56.68941 | 30213 ft | 469 kts | 108° |
| 2026-04-26 00:36 | 25.25605 | 56.72269 | 30490 ft | 471 kts | 108° |
| 2026-04-26 00:36 | 25.24317 | 56.75603 | 30763 ft | 474 kts | 108° |
| 2026-04-26 00:36 | 25.23036 | 56.78917 | 31012 ft | 476 kts | 108° |
| 2026-04-26 00:37 | 25.21724 | 56.82324 | 31263 ft | 477 kts | 108° |
| 2026-04-26 00:37 | 25.20442 | 56.85668 | 31502 ft | 479 kts | 108° |
| 2026-04-26 00:37 | 25.19148 | 56.89060 | 31735 ft | 481 kts | 108° |
| 2026-04-26 00:37 | 25.17853 | 56.92457 | 32045 ft | 480 kts | 108° |
| 2026-04-26 00:38 | 25.16557 | 56.95858 | 32383 ft | 479 kts | 108° |
| 2026-04-26 00:38 | 25.15269 | 56.99235 | 32685 ft | 478 kts | 108° |
| 2026-04-26 00:38 | 25.13977 | 57.02624 | 32974 ft | 478 kts | 108° |
| 2026-04-26 00:38 | 25.12686 | 57.06005 | 33277 ft | 477 kts | 108° |
| 2026-04-26 00:39 | 25.11396 | 57.09383 | 33558 ft | 477 kts | 108° |
| 2026-04-26 00:39 | 25.10108 | 57.12750 | 33826 ft | 476 kts | 108° |
| 2026-04-26 00:39 | 25.08823 | 57.16109 | 34079 ft | 476 kts | 108° |
| 2026-04-26 00:39 | 25.07532 | 57.19480 | 34337 ft | 475 kts | 108° |
| 2026-04-26 00:40 | 25.06248 | 57.22829 | 34590 ft | 475 kts | 108° |
| 2026-04-26 00:40 | 25.04960 | 57.26186 | 34800 ft | 474 kts | 108° |
| 2026-04-26 00:40 | 25.03675 | 57.29533 | 35040 ft | 474 kts | 108° |
| 2026-04-26 00:40 | 25.02390 | 57.32877 | 35263 ft | 473 kts | 108° |
| 2026-04-26 00:41 | 25.01103 | 57.36223 | 35462 ft | 473 kts | 108° |
| 2026-04-26 00:41 | 24.99822 | 57.39552 | 35663 ft | 473 kts | 108° |
| 2026-04-26 00:41 | 24.98536 | 57.42893 | 35843 ft | 472 kts | 108° |
| 2026-04-26 00:41 | 24.97252 | 57.46223 | 36032 ft | 472 kts | 108° |
| 2026-04-26 00:42 | 24.95967 | 57.49554 | 36208 ft | 472 kts | 108° |
| 2026-04-26 00:42 | 24.94683 | 57.52880 | 36373 ft | 472 kts | 108° |
| 2026-04-26 00:42 | 24.93397 | 57.56208 | 36523 ft | 472 kts | 108° |
| 2026-04-26 00:42 | 24.92113 | 57.59531 | 36679 ft | 472 kts | 108° |
| 2026-04-26 00:43 | 24.89546 | 57.66167 | 36749 ft | 477 kts | 108° |
| 2026-04-26 00:43 | 24.86933 | 57.72907 | 36746 ft | 479 kts | 108° |
| 2026-04-26 00:44 | 24.84319 | 57.79642 | 36746 ft | 478 kts | 108° |
| 2026-04-26 00:44 | 24.82405 | 57.86584 | 36746 ft | 472 kts | 99° |
| 2026-04-26 00:45 | 24.80934 | 57.93615 | 36746 ft | 471 kts | 98° |
| 2026-04-26 00:45 | 24.79523 | 58.00659 | 36746 ft | 471 kts | 98° |
| 2026-04-26 00:46 | 24.78103 | 58.07706 | 36746 ft | 471 kts | 98° |
| 2026-04-26 00:46 | 24.76670 | 58.14742 | 36746 ft | 471 kts | 98° |
| 2026-04-26 00:47 | 24.75227 | 58.21782 | 36746 ft | 471 kts | 98° |
| 2026-04-26 00:47 | 24.73782 | 58.28816 | 36746 ft | 471 kts | 98° |
| 2026-04-26 00:48 | 24.72333 | 58.35850 | 36746 ft | 471 kts | 98° |
| 2026-04-26 00:48 | 24.70892 | 58.42835 | 36746 ft | 472 kts | 98° |
| 2026-04-26 00:49 | 24.69438 | 58.49863 | 36746 ft | 472 kts | 98° |
| 2026-04-26 00:49 | 24.67980 | 58.56891 | 36746 ft | 472 kts | 98° |
| 2026-04-26 00:50 | 24.66518 | 58.63921 | 36746 ft | 472 kts | 98° |
| 2026-04-26 00:50 | 24.65053 | 58.70948 | 36746 ft | 472 kts | 98° |
| 2026-04-26 00:51 | 24.63586 | 58.77971 | 36746 ft | 472 kts | 98° |
| 2026-04-26 00:51 | 24.62114 | 58.84997 | 36746 ft | 472 kts | 98° |
| 2026-04-26 00:52 | 24.60639 | 58.92020 | 36746 ft | 472 kts | 99° |
| 2026-04-26 00:52 | 24.59160 | 58.99046 | 36746 ft | 472 kts | 99° |
| 2026-04-26 00:53 | 24.57679 | 59.06066 | 36746 ft | 472 kts | 99° |
| 2026-04-26 00:53 | 24.56195 | 59.13084 | 36746 ft | 472 kts | 99° |
| 2026-04-26 00:54 | 24.54707 | 59.20101 | 36746 ft | 472 kts | 99° |
| 2026-04-26 00:54 | 24.53216 | 59.27115 | 36746 ft | 472 kts | 99° |
| 2026-04-26 00:55 | 24.51720 | 59.34131 | 36746 ft | 472 kts | 99° |
| 2026-04-26 00:55 | 24.50220 | 59.41143 | 36746 ft | 472 kts | 99° |
| 2026-04-26 00:56 | 24.48718 | 59.48155 | 36746 ft | 472 kts | 99° |
| 2026-04-26 00:56 | 24.47213 | 59.55163 | 36746 ft | 472 kts | 99° |
| 2026-04-26 00:57 | 24.45703 | 59.62174 | 36746 ft | 472 kts | 99° |
| 2026-04-26 00:57 | 24.44191 | 59.69180 | 36746 ft | 472 kts | 99° |
| 2026-04-26 00:58 | 24.42685 | 59.76143 | 36746 ft | 472 kts | 99° |
| 2026-04-26 00:58 | 24.41168 | 59.83141 | 36746 ft | 472 kts | 99° |
| 2026-04-26 00:59 | 24.39646 | 59.90147 | 36746 ft | 472 kts | 99° |
| 2026-04-26 00:59 | 24.38121 | 59.97148 | 36746 ft | 472 kts | 99° |
| 2026-04-26 01:00 | 24.36593 | 60.04146 | 36746 ft | 472 kts | 99° |
| 2026-04-26 01:00 | 24.35062 | 60.11143 | 36746 ft | 472 kts | 99° |
| 2026-04-26 01:01 | 24.33532 | 60.18142 | 36746 ft | 472 kts | 99° |
| 2026-04-26 01:01 | 24.31992 | 60.25142 | 36746 ft | 472 kts | 99° |
| 2026-04-26 01:02 | 24.30452 | 60.32128 | 36746 ft | 472 kts | 99° |
| 2026-04-26 01:02 | 24.28906 | 60.39129 | 36746 ft | 472 kts | 99° |
| 2026-04-26 01:03 | 24.27360 | 60.46120 | 36746 ft | 472 kts | 99° |
| 2026-04-26 01:03 | 24.25811 | 60.53107 | 36746 ft | 472 kts | 99° |
| 2026-04-26 01:04 | 24.24259 | 60.60094 | 36746 ft | 472 kts | 99° |
| 2026-04-26 01:04 | 24.22702 | 60.67080 | 36746 ft | 472 kts | 99° |
| 2026-04-26 01:05 | 24.21142 | 60.74068 | 36746 ft | 472 kts | 99° |
| 2026-04-26 01:05 | 24.19583 | 60.81053 | 36746 ft | 472 kts | 99° |
| 2026-04-26 01:06 | 24.18020 | 60.88042 | 36746 ft | 472 kts | 99° |
| 2026-04-26 01:06 | 24.16467 | 60.94971 | 36746 ft | 472 kts | 99° |
| 2026-04-26 01:07 | 24.14899 | 61.01951 | 36746 ft | 472 kts | 99° |
| 2026-04-26 01:07 | 24.13326 | 61.08936 | 36746 ft | 472 kts | 99° |
| 2026-04-26 01:08 | 24.11751 | 61.15915 | 36746 ft | 472 kts | 99° |
| 2026-04-26 01:08 | 24.10173 | 61.22891 | 36746 ft | 472 kts | 99° |
| 2026-04-26 01:09 | 24.08656 | 61.29877 | 36745 ft | 470 kts | 95° |
| 2026-04-26 01:09 | 24.08405 | 61.36933 | 36749 ft | 461 kts | 81° |
| 2026-04-26 01:10 | 24.09250 | 61.43871 | 36747 ft | 460 kts | 78° |
| 2026-04-26 01:10 | 24.10311 | 61.50772 | 36746 ft | 460 kts | 77° |
| 2026-04-26 01:11 | 24.11370 | 61.57678 | 36746 ft | 460 kts | 77° |
| 2026-04-26 01:11 | 24.12391 | 61.64591 | 36746 ft | 460 kts | 78° |
| 2026-04-26 01:12 | 24.13396 | 61.71511 | 36746 ft | 460 kts | 78° |
| 2026-04-26 01:12 | 24.14393 | 61.78420 | 36746 ft | 460 kts | 78° |
| 2026-04-26 01:13 | 24.15206 | 61.84179 | 36746 ft | 460 kts | 78° |
| 2026-04-26 01:13 | 24.16144 | 61.91114 | 36746 ft | 460 kts | 78° |
| 2026-04-26 01:14 | 24.17076 | 61.98051 | 36746 ft | 460 kts | 78° |
| 2026-04-26 01:14 | 24.18009 | 62.04982 | 36746 ft | 460 kts | 78° |
| 2026-04-26 01:15 | 24.18942 | 62.11903 | 36746 ft | 460 kts | 78° |
| 2026-04-26 01:15 | 24.19875 | 62.18849 | 36746 ft | 460 kts | 78° |
| 2026-04-26 01:16 | 24.20804 | 62.25795 | 36746 ft | 460 kts | 78° |
| 2026-04-26 01:16 | 24.21729 | 62.32733 | 36746 ft | 460 kts | 78° |
| 2026-04-26 01:17 | 24.22645 | 62.39626 | 36746 ft | 460 kts | 78° |
| 2026-04-26 01:17 | 24.23564 | 62.46570 | 36746 ft | 460 kts | 78° |
| 2026-04-26 01:18 | 24.24481 | 62.53515 | 36746 ft | 460 kts | 78° |
| 2026-04-26 01:18 | 24.25393 | 62.60456 | 36746 ft | 460 kts | 78° |
| 2026-04-26 01:19 | 24.26303 | 62.67406 | 36746 ft | 460 kts | 78° |
| 2026-04-26 01:19 | 24.27209 | 62.74346 | 36746 ft | 460 kts | 78° |
| 2026-04-26 01:20 | 24.28112 | 62.81295 | 36746 ft | 460 kts | 79° |
| 2026-04-26 01:20 | 24.29013 | 62.88248 | 36746 ft | 460 kts | 79° |
| 2026-04-26 01:21 | 24.29910 | 62.95195 | 36746 ft | 460 kts | 79° |
| 2026-04-26 01:21 | 24.30804 | 63.02146 | 36746 ft | 461 kts | 79° |
| 2026-04-26 01:22 | 24.31695 | 63.09100 | 36746 ft | 461 kts | 79° |
| 2026-04-26 01:22 | 24.32583 | 63.16057 | 36746 ft | 461 kts | 79° |
| 2026-04-26 01:23 | 24.33466 | 63.23003 | 36746 ft | 461 kts | 79° |
| 2026-04-26 01:23 | 24.34347 | 63.29953 | 36746 ft | 461 kts | 79° |
| 2026-04-26 01:24 | 24.35220 | 63.36869 | 36746 ft | 461 kts | 79° |
| 2026-04-26 01:24 | 24.36095 | 63.43826 | 36746 ft | 461 kts | 79° |
| 2026-04-26 01:25 | 24.36968 | 63.50796 | 36746 ft | 461 kts | 79° |
| 2026-04-26 01:25 | 24.37835 | 63.57743 | 36746 ft | 461 kts | 79° |
| 2026-04-26 01:26 | 24.38701 | 63.64705 | 36746 ft | 461 kts | 79° |
| 2026-04-26 01:26 | 24.39564 | 63.71671 | 36746 ft | 461 kts | 79° |
| 2026-04-26 01:27 | 24.40422 | 63.78630 | 36746 ft | 461 kts | 79° |
| 2026-04-26 01:27 | 24.41278 | 63.85589 | 36746 ft | 461 kts | 79° |
| 2026-04-26 01:28 | 24.42132 | 63.92567 | 36746 ft | 461 kts | 79° |
| 2026-04-26 01:28 | 24.42982 | 63.99530 | 36746 ft | 461 kts | 79° |
| 2026-04-26 01:29 | 24.43829 | 64.06504 | 36746 ft | 461 kts | 79° |
| 2026-04-26 01:29 | 24.44661 | 64.13384 | 36746 ft | 461 kts | 79° |
| 2026-04-26 01:30 | 24.45502 | 64.20355 | 36746 ft | 461 kts | 79° |
| 2026-04-26 01:30 | 24.46339 | 64.27329 | 36746 ft | 461 kts | 79° |
| 2026-04-26 01:31 | 24.47173 | 64.34299 | 36746 ft | 461 kts | 79° |
| 2026-04-26 01:31 | 24.48004 | 64.41278 | 36746 ft | 461 kts | 79° |
| 2026-04-26 01:32 | 24.48831 | 64.48242 | 36746 ft | 461 kts | 79° |
| 2026-04-26 01:32 | 24.49656 | 64.55227 | 36746 ft | 461 kts | 79° |
| 2026-04-26 01:33 | 24.50477 | 64.62203 | 36746 ft | 461 kts | 79° |
| 2026-04-26 01:33 | 24.51295 | 64.69175 | 36746 ft | 461 kts | 79° |
| 2026-04-26 01:34 | 24.52110 | 64.76155 | 36746 ft | 461 kts | 79° |
| 2026-04-26 01:34 | 24.52704 | 64.83162 | 36747 ft | 464 kts | 87° |
| 2026-04-26 01:35 | 24.52264 | 64.90229 | 36746 ft | 467 kts | 91° |
| 2026-04-26 01:35 | 24.51606 | 64.97325 | 36746 ft | 468 kts | 92° |
| 2026-04-26 01:36 | 24.50920 | 65.04421 | 36746 ft | 468 kts | 92° |
| 2026-04-26 01:37 | 24.49914 | 65.15076 | 36746 ft | 467 kts | 92° |
| 2026-04-26 01:37 | 24.49250 | 65.22172 | 36746 ft | 467 kts | 92° |
| 2026-04-26 01:38 | 24.48582 | 65.29275 | 36746 ft | 467 kts | 92° |
| 2026-04-26 01:38 | 24.47910 | 65.36381 | 36746 ft | 467 kts | 92° |
| 2026-04-26 01:39 | 24.47236 | 65.43466 | 36746 ft | 468 kts | 92° |
| 2026-04-26 01:39 | 24.46557 | 65.50566 | 36746 ft | 468 kts | 92° |
| 2026-04-26 01:40 | 24.45874 | 65.57668 | 36746 ft | 468 kts | 92° |
| 2026-04-26 01:40 | 24.45190 | 65.64751 | 36746 ft | 468 kts | 92° |
| 2026-04-26 01:41 | 24.44505 | 65.71809 | 36746 ft | 468 kts | 92° |
| 2026-04-26 01:41 | 24.43809 | 65.78949 | 36746 ft | 468 kts | 92° |
| 2026-04-26 01:42 | 24.43118 | 65.86001 | 36746 ft | 468 kts | 92° |
| 2026-04-26 01:42 | 24.42420 | 65.93090 | 36746 ft | 468 kts | 92° |
| 2026-04-26 01:43 | 24.41717 | 66.00189 | 36746 ft | 468 kts | 92° |
| 2026-04-26 01:43 | 24.41013 | 66.07271 | 36746 ft | 468 kts | 92° |
| 2026-04-26 01:44 | 24.40304 | 66.14373 | 36746 ft | 468 kts | 92° |
| 2026-04-26 01:44 | 24.39592 | 66.21461 | 36746 ft | 468 kts | 92° |
| 2026-04-26 01:45 | 24.38876 | 66.28558 | 36746 ft | 468 kts | 92° |
| 2026-04-26 01:45 | 24.38159 | 66.35641 | 36746 ft | 468 kts | 92° |
| 2026-04-26 01:46 | 24.37437 | 66.42731 | 36746 ft | 468 kts | 92° |
| 2026-04-26 01:46 | 24.36711 | 66.49827 | 36746 ft | 468 kts | 92° |
| 2026-04-26 01:47 | 24.35983 | 66.56910 | 36746 ft | 468 kts | 92° |
| 2026-04-26 01:47 | 24.35251 | 66.64002 | 36746 ft | 468 kts | 92° |
| 2026-04-26 01:48 | 24.34516 | 66.71087 | 36746 ft | 468 kts | 92° |
| 2026-04-26 01:48 | 24.33778 | 66.78170 | 36746 ft | 468 kts | 92° |
| 2026-04-26 01:49 | 24.33036 | 66.85262 | 36746 ft | 468 kts | 92° |
| 2026-04-26 01:49 | 24.32291 | 66.92345 | 36746 ft | 468 kts | 92° |
| 2026-04-26 01:50 | 24.31546 | 66.99394 | 36746 ft | 468 kts | 92° |
| 2026-04-26 01:50 | 24.30790 | 67.06526 | 36746 ft | 468 kts | 92° |
| 2026-04-26 01:51 | 24.30040 | 67.13557 | 36746 ft | 468 kts | 92° |
| 2026-04-26 01:51 | 24.29282 | 67.20635 | 36746 ft | 468 kts | 92° |
| 2026-04-26 01:52 | 24.28519 | 67.27733 | 36746 ft | 468 kts | 92° |
| 2026-04-26 01:52 | 24.27754 | 67.34813 | 36746 ft | 468 kts | 93° |
| 2026-04-26 01:53 | 24.26987 | 67.41885 | 36746 ft | 468 kts | 93° |
| 2026-04-26 01:53 | 24.26215 | 67.48971 | 36746 ft | 468 kts | 93° |
| 2026-04-26 01:54 | 24.25440 | 67.56050 | 36746 ft | 468 kts | 93° |
| 2026-04-26 01:54 | 24.24663 | 67.63126 | 36746 ft | 468 kts | 93° |
| 2026-04-26 01:55 | 24.23880 | 67.70219 | 36746 ft | 468 kts | 93° |
| 2026-04-26 01:55 | 24.23097 | 67.77281 | 36746 ft | 468 kts | 93° |
| 2026-04-26 01:56 | 24.22308 | 67.84368 | 36746 ft | 468 kts | 93° |
| 2026-04-26 01:56 | 24.21517 | 67.91444 | 36746 ft | 468 kts | 93° |
| 2026-04-26 01:57 | 24.20721 | 67.98530 | 36746 ft | 468 kts | 93° |
| 2026-04-26 01:57 | 24.19924 | 68.05599 | 36746 ft | 468 kts | 93° |
| 2026-04-26 01:58 | 24.19123 | 68.12673 | 36746 ft | 468 kts | 93° |
| 2026-04-26 01:58 | 24.18317 | 68.19760 | 36746 ft | 468 kts | 93° |
| 2026-04-26 01:59 | 24.17509 | 68.26834 | 36746 ft | 468 kts | 93° |
| 2026-04-26 01:59 | 24.16697 | 68.33912 | 36746 ft | 468 kts | 93° |
| 2026-04-26 02:00 | 24.15883 | 68.40987 | 36746 ft | 468 kts | 93° |
| 2026-04-26 02:00 | 24.15071 | 68.48004 | 36746 ft | 468 kts | 93° |
| 2026-04-26 02:01 | 24.14249 | 68.55084 | 36746 ft | 468 kts | 93° |
| 2026-04-26 02:01 | 24.13426 | 68.62150 | 36746 ft | 468 kts | 93° |
| 2026-04-26 02:02 | 24.12598 | 68.69225 | 36746 ft | 468 kts | 93° |
| 2026-04-26 02:02 | 24.11915 | 68.75147 | 36744 ft | 467 kts | 92° |
| 2026-04-26 02:03 | 24.11640 | 68.82178 | 36746 ft | 465 kts | 88° |
| 2026-04-26 02:03 | 24.11527 | 68.89297 | 36746 ft | 465 kts | 87° |
| 2026-04-26 02:04 | 24.11441 | 68.96323 | 36747 ft | 465 kts | 87° |
| 2026-04-26 02:04 | 24.11346 | 69.03397 | 36747 ft | 465 kts | 87° |
| 2026-04-26 02:05 | 24.11240 | 69.10473 | 36747 ft | 465 kts | 87° |
| 2026-04-26 02:05 | 24.11128 | 69.17546 | 36746 ft | 465 kts | 87° |
| 2026-04-26 02:06 | 24.11014 | 69.24622 | 36746 ft | 465 kts | 87° |
| 2026-04-26 02:06 | 24.10896 | 69.31692 | 36746 ft | 465 kts | 87° |
| 2026-04-26 02:07 | 24.10775 | 69.38764 | 36746 ft | 465 kts | 87° |
| 2026-04-26 02:07 | 24.10651 | 69.45841 | 36747 ft | 465 kts | 87° |
| 2026-04-26 02:08 | 24.10524 | 69.52919 | 36747 ft | 465 kts | 87° |
| 2026-04-26 02:08 | 24.10393 | 69.59996 | 36747 ft | 465 kts | 87° |
| 2026-04-26 02:09 | 24.10260 | 69.67074 | 36747 ft | 465 kts | 87° |
| 2026-04-26 02:09 | 24.10123 | 69.74140 | 36746 ft | 465 kts | 88° |
| 2026-04-26 02:10 | 24.09982 | 69.81216 | 36746 ft | 465 kts | 88° |
| 2026-04-26 02:10 | 24.09839 | 69.88301 | 36746 ft | 465 kts | 88° |
| 2026-04-26 02:11 | 24.09692 | 69.95370 | 36746 ft | 465 kts | 88° |
| 2026-04-26 02:11 | 24.09542 | 70.02447 | 36746 ft | 465 kts | 88° |
| 2026-04-26 02:12 | 24.09388 | 70.09526 | 36746 ft | 465 kts | 88° |
| 2026-04-26 02:12 | 24.09233 | 70.16557 | 36746 ft | 465 kts | 88° |
| 2026-04-26 02:13 | 24.09072 | 70.23679 | 36747 ft | 465 kts | 88° |
| 2026-04-26 02:13 | 24.08909 | 70.30745 | 36747 ft | 465 kts | 88° |
| 2026-04-26 02:14 | 24.08743 | 70.37789 | 36746 ft | 465 kts | 88° |
| 2026-04-26 02:14 | 24.08574 | 70.44864 | 36746 ft | 465 kts | 88° |
| 2026-04-26 02:15 | 24.08400 | 70.51944 | 36746 ft | 465 kts | 88° |
| 2026-04-26 02:15 | 24.08224 | 70.59016 | 36747 ft | 465 kts | 88° |
| 2026-04-26 02:16 | 24.08045 | 70.66099 | 36746 ft | 465 kts | 88° |
| 2026-04-26 02:16 | 24.07862 | 70.73177 | 36746 ft | 465 kts | 88° |
| 2026-04-26 02:17 | 24.07676 | 70.80253 | 36746 ft | 465 kts | 88° |
| 2026-04-26 02:17 | 24.07487 | 70.87328 | 36746 ft | 465 kts | 88° |
| 2026-04-26 02:18 | 24.07294 | 70.94403 | 36747 ft | 465 kts | 88° |
| 2026-04-26 02:18 | 24.07100 | 71.01442 | 36746 ft | 465 kts | 88° |
| 2026-04-26 02:19 | 24.06903 | 71.08517 | 36746 ft | 465 kts | 88° |
| 2026-04-26 02:19 | 24.06702 | 71.15592 | 36746 ft | 465 kts | 88° |
| 2026-04-26 02:20 | 24.06498 | 71.22671 | 36747 ft | 465 kts | 88° |
| 2026-04-26 02:20 | 24.06291 | 71.29744 | 36746 ft | 465 kts | 88° |
| 2026-04-26 02:21 | 24.06081 | 71.36826 | 36746 ft | 465 kts | 88° |
| 2026-04-26 02:21 | 24.05868 | 71.43899 | 36746 ft | 465 kts | 88° |
| 2026-04-26 02:22 | 24.05650 | 71.50988 | 36746 ft | 465 kts | 88° |
| 2026-04-26 02:22 | 24.05430 | 71.58068 | 36746 ft | 466 kts | 88° |
| 2026-04-26 02:23 | 24.05206 | 71.65146 | 36747 ft | 466 kts | 88° |
| 2026-04-26 02:23 | 24.04980 | 71.72222 | 36746 ft | 466 kts | 88° |
| 2026-04-26 02:24 | 24.04751 | 71.79257 | 36746 ft | 466 kts | 88° |
| 2026-04-26 02:24 | 24.04518 | 71.86343 | 36746 ft | 466 kts | 88° |
| 2026-04-26 02:25 | 24.04281 | 71.93429 | 36746 ft | 466 kts | 88° |
| 2026-04-26 02:25 | 24.04041 | 72.00514 | 36747 ft | 466 kts | 88° |
| 2026-04-26 02:26 | 24.03798 | 72.07597 | 36747 ft | 466 kts | 88° |
| 2026-04-26 02:26 | 24.03551 | 72.14692 | 36746 ft | 466 kts | 88° |
| 2026-04-26 02:27 | 24.03301 | 72.21777 | 36746 ft | 466 kts | 88° |
| 2026-04-26 02:27 | 24.03048 | 72.28870 | 36746 ft | 466 kts | 88° |
| 2026-04-26 02:28 | 24.02793 | 72.35923 | 36746 ft | 467 kts | 88° |
| 2026-04-26 02:28 | 24.02533 | 72.43017 | 36746 ft | 467 kts | 88° |
| 2026-04-26 02:29 | 24.02270 | 72.50116 | 36747 ft | 467 kts | 89° |
| 2026-04-26 02:29 | 24.02003 | 72.57210 | 36747 ft | 467 kts | 89° |
| 2026-04-26 02:30 | 24.01733 | 72.64310 | 36747 ft | 467 kts | 89° |
| 2026-04-26 02:30 | 24.01556 | 72.71412 | 36747 ft | 466 kts | 86° |
| 2026-04-26 02:31 | 24.01691 | 72.78483 | 36746 ft | 465 kts | 85° |
| 2026-04-26 02:31 | 24.01853 | 72.85560 | 36747 ft | 466 kts | 85° |
| 2026-04-26 02:32 | 24.01964 | 72.92587 | 36746 ft | 465 kts | 85° |
| 2026-04-26 02:32 | 24.02046 | 72.99667 | 36746 ft | 465 kts | 85° |
| 2026-04-26 02:33 | 24.02119 | 73.06750 | 36747 ft | 465 kts | 86° |
| 2026-04-26 02:33 | 24.02190 | 73.13821 | 36746 ft | 466 kts | 86° |
| 2026-04-26 02:34 | 24.02260 | 73.20911 | 36746 ft | 466 kts | 86° |
| 2026-04-26 02:34 | 24.02327 | 73.28002 | 36746 ft | 466 kts | 86° |
| 2026-04-26 02:35 | 24.02391 | 73.35099 | 36746 ft | 467 kts | 86° |
| 2026-04-26 02:35 | 24.02451 | 73.42203 | 36746 ft | 467 kts | 86° |
| 2026-04-26 02:36 | 24.02509 | 73.49309 | 36747 ft | 467 kts | 86° |
| 2026-04-26 02:36 | 24.02562 | 73.56424 | 36746 ft | 467 kts | 86° |
| 2026-04-26 02:37 | 24.02613 | 73.63527 | 36746 ft | 467 kts | 86° |
| 2026-04-26 02:37 | 24.02660 | 73.70621 | 36746 ft | 466 kts | 86° |
| 2026-04-26 02:38 | 24.02709 | 73.77724 | 36746 ft | 466 kts | 86° |
| 2026-04-26 02:38 | 24.02750 | 73.84815 | 36747 ft | 466 kts | 86° |
| 2026-04-26 02:39 | 24.02787 | 73.91872 | 36746 ft | 466 kts | 86° |
| 2026-04-26 02:39 | 24.02822 | 73.98962 | 36746 ft | 466 kts | 86° |
| 2026-04-26 02:40 | 24.02855 | 74.06040 | 36746 ft | 466 kts | 86° |
| 2026-04-26 02:40 | 24.02911 | 74.13134 | 36746 ft | 465 kts | 85° |
| 2026-04-26 02:41 | 24.03024 | 74.20204 | 36746 ft | 465 kts | 85° |
| 2026-04-26 02:41 | 24.03138 | 74.27284 | 36746 ft | 465 kts | 85° |
| 2026-04-26 02:42 | 24.03240 | 74.34363 | 36746 ft | 466 kts | 85° |
| 2026-04-26 02:42 | 24.03331 | 74.41450 | 36746 ft | 466 kts | 85° |
| 2026-04-26 02:43 | 24.03466 | 74.52068 | 36746 ft | 466 kts | 85° |
| 2026-04-26 02:43 | 24.03552 | 74.59157 | 36745 ft | 466 kts | 85° |
| 2026-04-26 02:44 | 24.03635 | 74.66249 | 36748 ft | 467 kts | 85° |
| 2026-04-26 02:44 | 24.03525 | 74.73329 | 36747 ft | 471 kts | 92° |
| 2026-04-26 02:45 | 24.02081 | 74.80363 | 36746 ft | 477 kts | 102° |
| 2026-04-26 02:45 | 24.00159 | 74.87321 | 36746 ft | 478 kts | 103° |
| 2026-04-26 02:46 | 23.98169 | 74.94252 | 36746 ft | 478 kts | 103° |
| 2026-04-26 02:46 | 23.96191 | 75.01187 | 36746 ft | 478 kts | 103° |
| 2026-04-26 02:47 | 23.94226 | 75.08127 | 36747 ft | 478 kts | 103° |
| 2026-04-26 02:47 | 23.92266 | 75.15059 | 36746 ft | 478 kts | 103° |
| 2026-04-26 02:48 | 23.90300 | 75.22002 | 36746 ft | 478 kts | 103° |
| 2026-04-26 02:48 | 23.88664 | 75.27767 | 36746 ft | 478 kts | 103° |
| 2026-04-26 02:49 | 23.86692 | 75.34701 | 36747 ft | 478 kts | 103° |
| 2026-04-26 02:49 | 23.84713 | 75.41642 | 36746 ft | 477 kts | 103° |
| 2026-04-26 02:50 | 23.82737 | 75.48565 | 36747 ft | 478 kts | 103° |
| 2026-04-26 02:50 | 23.80757 | 75.55487 | 36746 ft | 477 kts | 103° |
| 2026-04-26 02:51 | 23.78776 | 75.62401 | 36746 ft | 477 kts | 103° |
| 2026-04-26 02:51 | 23.76789 | 75.69323 | 36747 ft | 478 kts | 103° |
| 2026-04-26 02:52 | 23.74810 | 75.76205 | 36746 ft | 478 kts | 103° |
| 2026-04-26 02:52 | 23.72819 | 75.83116 | 36746 ft | 478 kts | 103° |
| 2026-04-26 02:53 | 23.70823 | 75.90030 | 36746 ft | 478 kts | 103° |
| 2026-04-26 02:53 | 23.68823 | 75.96945 | 36746 ft | 478 kts | 103° |
| 2026-04-26 02:54 | 23.66818 | 76.03867 | 36747 ft | 478 kts | 103° |
| 2026-04-26 02:54 | 23.64798 | 76.10785 | 36747 ft | 478 kts | 103° |
| 2026-04-26 02:55 | 23.62775 | 76.17689 | 36746 ft | 478 kts | 103° |
| 2026-04-26 02:55 | 23.60752 | 76.24593 | 36746 ft | 478 kts | 103° |
| 2026-04-26 02:56 | 23.58741 | 76.31449 | 36746 ft | 478 kts | 103° |
| 2026-04-26 02:56 | 23.56718 | 76.38331 | 36747 ft | 478 kts | 103° |
| 2026-04-26 02:57 | 23.54683 | 76.45243 | 36746 ft | 478 kts | 103° |
| 2026-04-26 02:57 | 23.52649 | 76.52139 | 36746 ft | 478 kts | 103° |
| 2026-04-26 02:58 | 23.50610 | 76.59038 | 36748 ft | 478 kts | 103° |
| 2026-04-26 02:58 | 23.48572 | 76.65924 | 36746 ft | 478 kts | 103° |
| 2026-04-26 02:59 | 23.46526 | 76.72821 | 36746 ft | 478 kts | 103° |
| 2026-04-26 02:59 | 23.44480 | 76.79707 | 36746 ft | 478 kts | 103° |
| 2026-04-26 03:00 | 23.42432 | 76.86588 | 36746 ft | 478 kts | 103° |
| 2026-04-26 03:00 | 23.40375 | 76.93487 | 36746 ft | 478 kts | 103° |
| 2026-04-26 03:01 | 23.38335 | 77.00317 | 36746 ft | 478 kts | 103° |
| 2026-04-26 03:01 | 23.36272 | 77.07210 | 36747 ft | 478 kts | 103° |
| 2026-04-26 03:02 | 23.34208 | 77.14096 | 36746 ft | 478 kts | 104° |
| 2026-04-26 03:02 | 23.32143 | 77.20973 | 36746 ft | 478 kts | 104° |
| 2026-04-26 03:03 | 23.30080 | 77.27832 | 36747 ft | 478 kts | 104° |
| 2026-04-26 03:03 | 23.28433 | 77.34819 | 36747 ft | 472 kts | 93° |
| 2026-04-26 03:04 | 23.27940 | 77.41910 | 36746 ft | 469 kts | 89° |
| 2026-04-26 03:04 | 23.27657 | 77.48998 | 36746 ft | 469 kts | 88° |
| 2026-04-26 03:05 | 23.27395 | 77.56089 | 36746 ft | 469 kts | 89° |
| 2026-04-26 03:05 | 23.27112 | 77.63180 | 36747 ft | 469 kts | 89° |
| 2026-04-26 03:06 | 23.26814 | 77.70263 | 36747 ft | 469 kts | 89° |
| 2026-04-26 03:06 | 23.26511 | 77.77304 | 36746 ft | 469 kts | 89° |
| 2026-04-26 03:07 | 23.26204 | 77.84391 | 36746 ft | 469 kts | 89° |
| 2026-04-26 03:07 | 23.25894 | 77.91477 | 36747 ft | 469 kts | 89° |
| 2026-04-26 03:08 | 23.25581 | 77.98565 | 36747 ft | 469 kts | 89° |
| 2026-04-26 03:08 | 23.25265 | 78.05644 | 36747 ft | 469 kts | 89° |
| 2026-04-26 03:09 | 23.24945 | 78.12740 | 36746 ft | 470 kts | 89° |
| 2026-04-26 03:09 | 23.24622 | 78.19830 | 36745 ft | 469 kts | 89° |
| 2026-04-26 03:10 | 23.24296 | 78.26916 | 36747 ft | 469 kts | 89° |
| 2026-04-26 03:10 | 23.23969 | 78.33991 | 36746 ft | 469 kts | 89° |
| 2026-04-26 03:11 | 23.23637 | 78.41072 | 36746 ft | 468 kts | 89° |
| 2026-04-26 03:11 | 23.23305 | 78.48095 | 36746 ft | 468 kts | 89° |
| 2026-04-26 03:12 | 23.22968 | 78.55159 | 36747 ft | 468 kts | 89° |
| 2026-04-26 03:12 | 23.22627 | 78.62241 | 36747 ft | 468 kts | 89° |
| 2026-04-26 03:13 | 23.22283 | 78.69315 | 36746 ft | 469 kts | 89° |
| 2026-04-26 03:13 | 23.21948 | 78.76398 | 36746 ft | 468 kts | 88° |
| 2026-04-26 03:14 | 23.21832 | 78.83475 | 36746 ft | 467 kts | 86° |
| 2026-04-26 03:14 | 23.21789 | 78.90547 | 36746 ft | 467 kts | 87° |
| 2026-04-26 03:15 | 23.21712 | 78.97566 | 36747 ft | 468 kts | 87° |
| 2026-04-26 03:15 | 23.21607 | 79.04636 | 36746 ft | 468 kts | 87° |
| 2026-04-26 03:16 | 23.21492 | 79.11709 | 36746 ft | 468 kts | 87° |
| 2026-04-26 03:16 | 23.21375 | 79.18792 | 36746 ft | 468 kts | 87° |
| 2026-04-26 03:17 | 23.21255 | 79.25870 | 36747 ft | 468 kts | 87° |
| 2026-04-26 03:17 | 23.21132 | 79.32942 | 36746 ft | 468 kts | 87° |
| 2026-04-26 03:18 | 23.21007 | 79.40024 | 36746 ft | 468 kts | 87° |
| 2026-04-26 03:18 | 23.20878 | 79.47099 | 36746 ft | 468 kts | 87° |
| 2026-04-26 03:19 | 23.20746 | 79.54173 | 36746 ft | 468 kts | 87° |
| 2026-04-26 03:19 | 23.20576 | 79.61247 | 36746 ft | 468 kts | 89° |
| 2026-04-26 03:20 | 23.20262 | 79.68319 | 36746 ft | 468 kts | 89° |
| 2026-04-26 03:20 | 23.19929 | 79.75389 | 36747 ft | 469 kts | 89° |
| 2026-04-26 03:21 | 23.19613 | 79.82468 | 36746 ft | 468 kts | 89° |
| 2026-04-26 03:21 | 23.19307 | 79.89545 | 36746 ft | 468 kts | 89° |
| 2026-04-26 03:22 | 23.19000 | 79.96614 | 36746 ft | 469 kts | 89° |
| 2026-04-26 03:22 | 23.18690 | 80.03692 | 36747 ft | 469 kts | 89° |
| 2026-04-26 03:23 | 23.18370 | 80.10723 | 36747 ft | 469 kts | 89° |
| 2026-04-26 03:23 | 23.18000 | 80.17805 | 36747 ft | 469 kts | 89° |
| 2026-04-26 03:24 | 23.17621 | 80.24887 | 36746 ft | 469 kts | 89° |
| 2026-04-26 03:24 | 23.17247 | 80.31976 | 36746 ft | 470 kts | 89° |
| 2026-04-26 03:25 | 23.16873 | 80.39065 | 36746 ft | 470 kts | 89° |
| 2026-04-26 03:25 | 23.16497 | 80.46160 | 36746 ft | 470 kts | 89° |
| 2026-04-26 03:26 | 23.16118 | 80.53260 | 36747 ft | 471 kts | 89° |
| 2026-04-26 03:26 | 23.15734 | 80.60361 | 36747 ft | 471 kts | 89° |
| 2026-04-26 03:27 | 23.15347 | 80.67463 | 36746 ft | 471 kts | 90° |
| 2026-04-26 03:27 | 23.14957 | 80.74567 | 36746 ft | 471 kts | 90° |
| 2026-04-26 03:28 | 23.14573 | 80.81665 | 36747 ft | 471 kts | 89° |
| 2026-04-26 03:28 | 23.14188 | 80.88779 | 36746 ft | 471 kts | 90° |
| 2026-04-26 03:29 | 23.13799 | 80.95891 | 36746 ft | 472 kts | 90° |
| 2026-04-26 03:29 | 23.13409 | 81.02969 | 36745 ft | 472 kts | 89° |
| 2026-04-26 03:30 | 23.13014 | 81.10093 | 36748 ft | 472 kts | 90° |
| 2026-04-26 03:30 | 23.12615 | 81.17216 | 36747 ft | 472 kts | 90° |
| 2026-04-26 03:31 | 23.12213 | 81.24320 | 36745 ft | 471 kts | 90° |
| 2026-04-26 03:31 | 23.11808 | 81.31435 | 36748 ft | 472 kts | 90° |
| 2026-04-26 03:32 | 23.11401 | 81.38545 | 36747 ft | 471 kts | 90° |
| 2026-04-26 03:32 | 23.10993 | 81.45604 | 36746 ft | 470 kts | 90° |
| 2026-04-26 03:33 | 23.10581 | 81.52688 | 36747 ft | 470 kts | 90° |
| 2026-04-26 03:33 | 23.10165 | 81.59772 | 36746 ft | 470 kts | 90° |
| 2026-04-26 03:34 | 23.09747 | 81.66857 | 36747 ft | 470 kts | 90° |
| 2026-04-26 03:34 | 23.09324 | 81.73944 | 36746 ft | 470 kts | 90° |
| 2026-04-26 03:35 | 23.08900 | 81.81015 | 36747 ft | 470 kts | 90° |
| 2026-04-26 03:35 | 23.08471 | 81.88107 | 36746 ft | 470 kts | 90° |
| 2026-04-26 03:36 | 23.08113 | 81.93986 | 36747 ft | 470 kts | 90° |
| 2026-04-26 03:36 | 23.07679 | 82.01066 | 36747 ft | 470 kts | 90° |
| 2026-04-26 03:37 | 23.07242 | 82.08148 | 36747 ft | 470 kts | 90° |
| 2026-04-26 03:37 | 23.06801 | 82.15229 | 36747 ft | 470 kts | 90° |
| 2026-04-26 03:38 | 23.06418 | 82.22311 | 36747 ft | 469 kts | 89° |
| 2026-04-26 03:38 | 23.06137 | 82.29386 | 36746 ft | 469 kts | 89° |
| 2026-04-26 03:39 | 23.05854 | 82.36455 | 36746 ft | 469 kts | 89° |
| 2026-04-26 03:39 | 23.05550 | 82.43525 | 36746 ft | 469 kts | 89° |
| 2026-04-26 03:40 | 23.05236 | 82.50601 | 36747 ft | 469 kts | 89° |
| 2026-04-26 03:40 | 23.04917 | 82.57676 | 36747 ft | 469 kts | 89° |
| 2026-04-26 03:41 | 23.04595 | 82.64748 | 36747 ft | 469 kts | 89° |
| 2026-04-26 03:41 | 23.04270 | 82.71820 | 36747 ft | 469 kts | 89° |
| 2026-04-26 03:42 | 23.03944 | 82.78884 | 36747 ft | 469 kts | 89° |
| 2026-04-26 03:42 | 23.03613 | 82.85959 | 36747 ft | 469 kts | 89° |
| 2026-04-26 03:43 | 23.03278 | 82.93039 | 36747 ft | 470 kts | 89° |
| 2026-04-26 03:43 | 23.02943 | 83.00074 | 36746 ft | 470 kts | 89° |
| 2026-04-26 03:44 | 23.02603 | 83.07160 | 36747 ft | 470 kts | 89° |
| 2026-04-26 03:44 | 23.02258 | 83.14246 | 36747 ft | 470 kts | 89° |
| 2026-04-26 03:45 | 23.01911 | 83.21328 | 36746 ft | 470 kts | 89° |
| 2026-04-26 03:45 | 23.01561 | 83.28418 | 36747 ft | 470 kts | 89° |
| 2026-04-26 03:46 | 23.01208 | 83.35500 | 36747 ft | 471 kts | 89° |
| 2026-04-26 03:47 | 23.00670 | 83.46151 | 36746 ft | 471 kts | 89° |
| 2026-04-26 03:47 | 23.00309 | 83.53244 | 36747 ft | 471 kts | 89° |
| 2026-04-26 03:48 | 22.99944 | 83.60340 | 36745 ft | 471 kts | 89° |
| 2026-04-26 03:48 | 22.99575 | 83.67453 | 36746 ft | 472 kts | 89° |
| 2026-04-26 03:49 | 22.99202 | 83.74567 | 36746 ft | 472 kts | 89° |
| 2026-04-26 03:49 | 22.98828 | 83.81665 | 36746 ft | 472 kts | 89° |
| 2026-04-26 03:50 | 22.98450 | 83.88785 | 36745 ft | 472 kts | 89° |
| 2026-04-26 03:50 | 22.98066 | 83.95903 | 36744 ft | 472 kts | 90° |
| 2026-04-26 03:51 | 22.97681 | 84.03019 | 36748 ft | 472 kts | 89° |
| 2026-04-26 03:51 | 22.97294 | 84.10133 | 36747 ft | 472 kts | 90° |
| 2026-04-26 03:52 | 22.96879 | 84.17232 | 36747 ft | 472 kts | 90° |
| 2026-04-26 03:52 | 22.96356 | 84.24329 | 36747 ft | 472 kts | 91° |
| 2026-04-26 03:53 | 22.95815 | 84.31435 | 36747 ft | 472 kts | 91° |
| 2026-04-26 03:53 | 22.95287 | 84.38529 | 36747 ft | 472 kts | 91° |
| 2026-04-26 03:54 | 22.94766 | 84.45623 | 36747 ft | 472 kts | 91° |
| 2026-04-26 03:54 | 22.94245 | 84.52711 | 36746 ft | 472 kts | 91° |
| 2026-04-26 03:55 | 22.93719 | 84.59805 | 36746 ft | 472 kts | 91° |
| 2026-04-26 03:55 | 22.93190 | 84.66895 | 36746 ft | 471 kts | 91° |
| 2026-04-26 03:56 | 22.92658 | 84.73976 | 36747 ft | 471 kts | 91° |
| 2026-04-26 03:56 | 22.92123 | 84.81051 | 36746 ft | 471 kts | 91° |
| 2026-04-26 03:57 | 22.91585 | 84.88131 | 36747 ft | 471 kts | 91° |
| 2026-04-26 03:57 | 22.91047 | 84.95169 | 36747 ft | 471 kts | 91° |
| 2026-04-26 03:58 | 22.90502 | 85.02239 | 36747 ft | 471 kts | 91° |
| 2026-04-26 03:58 | 22.89954 | 85.09316 | 36745 ft | 470 kts | 91° |
| 2026-04-26 03:59 | 22.89405 | 85.16386 | 36747 ft | 470 kts | 91° |
| 2026-04-26 03:59 | 22.88860 | 85.23450 | 36746 ft | 470 kts | 91° |
| 2026-04-26 04:00 | 22.88313 | 85.30524 | 36747 ft | 471 kts | 91° |
| 2026-04-26 04:00 | 22.87762 | 85.37602 | 36747 ft | 471 kts | 91° |
| 2026-04-26 04:01 | 22.87207 | 85.44685 | 36746 ft | 471 kts | 91° |
| 2026-04-26 04:01 | 22.86650 | 85.51751 | 36747 ft | 470 kts | 91° |
| 2026-04-26 04:02 | 22.86089 | 85.58825 | 36747 ft | 471 kts | 91° |
| 2026-04-26 04:02 | 22.85524 | 85.65902 | 36749 ft | 472 kts | 91° |
| 2026-04-26 04:03 | 22.84956 | 85.72976 | 36748 ft | 470 kts | 91° |
| 2026-04-26 04:03 | 22.84387 | 85.80027 | 36746 ft | 469 kts | 91° |
| 2026-04-26 04:04 | 22.83816 | 85.87070 | 36746 ft | 469 kts | 91° |
| 2026-04-26 04:04 | 22.83246 | 85.94059 | 36746 ft | 469 kts | 91° |
| 2026-04-26 04:05 | 22.82669 | 86.01106 | 36746 ft | 469 kts | 91° |
| 2026-04-26 04:05 | 22.82088 | 86.08143 | 36747 ft | 469 kts | 91° |
| 2026-04-26 04:06 | 22.81504 | 86.15176 | 36746 ft | 468 kts | 91° |
| 2026-04-26 04:06 | 22.80977 | 86.22203 | 36747 ft | 467 kts | 90° |
| 2026-04-26 04:07 | 22.80630 | 86.29233 | 36746 ft | 467 kts | 89° |
| 2026-04-26 04:07 | 22.80296 | 86.36258 | 36746 ft | 467 kts | 89° |
| 2026-04-26 04:08 | 22.79931 | 86.43283 | 36746 ft | 468 kts | 89° |
| 2026-04-26 04:08 | 22.79546 | 86.50324 | 36747 ft | 467 kts | 90° |
| 2026-04-26 04:09 | 22.79155 | 86.57356 | 36747 ft | 468 kts | 90° |
| 2026-04-26 04:09 | 22.78762 | 86.64391 | 36746 ft | 468 kts | 90° |
| 2026-04-26 04:10 | 22.78369 | 86.71384 | 36747 ft | 468 kts | 90° |
| 2026-04-26 04:10 | 22.77968 | 86.78457 | 36746 ft | 468 kts | 90° |
| 2026-04-26 04:11 | 22.77567 | 86.85491 | 36746 ft | 467 kts | 90° |
| 2026-04-26 04:11 | 22.77164 | 86.92511 | 36747 ft | 467 kts | 90° |
| 2026-04-26 04:12 | 22.76757 | 86.99535 | 36746 ft | 467 kts | 90° |
| 2026-04-26 04:12 | 22.76351 | 87.06508 | 36746 ft | 467 kts | 90° |
| 2026-04-26 04:13 | 22.75938 | 87.13528 | 36746 ft | 467 kts | 90° |
| 2026-04-26 04:13 | 22.75522 | 87.20546 | 36746 ft | 467 kts | 90° |
| 2026-04-26 04:14 | 22.75103 | 87.27562 | 36746 ft | 467 kts | 90° |
| 2026-04-26 04:14 | 22.74682 | 87.34581 | 36746 ft | 467 kts | 90° |
| 2026-04-26 04:15 | 22.74257 | 87.41592 | 36746 ft | 467 kts | 90° |
| 2026-04-26 04:15 | 22.73830 | 87.48604 | 36746 ft | 467 kts | 90° |
| 2026-04-26 04:16 | 22.73399 | 87.55613 | 36747 ft | 467 kts | 90° |
| 2026-04-26 04:16 | 22.72965 | 87.62631 | 36746 ft | 466 kts | 90° |
| 2026-04-26 04:17 | 22.72528 | 87.69637 | 36746 ft | 466 kts | 90° |
| 2026-04-26 04:17 | 22.72089 | 87.76645 | 36746 ft | 466 kts | 90° |
| 2026-04-26 04:18 | 22.71646 | 87.83655 | 36747 ft | 466 kts | 90° |
| 2026-04-26 04:18 | 22.71200 | 87.90663 | 36746 ft | 466 kts | 90° |
| 2026-04-26 04:19 | 22.70751 | 87.97668 | 36747 ft | 466 kts | 90° |
| 2026-04-26 04:19 | 22.70298 | 88.04683 | 36746 ft | 466 kts | 90° |
| 2026-04-26 04:20 | 22.69843 | 88.11688 | 36747 ft | 466 kts | 90° |
| 2026-04-26 04:20 | 22.69385 | 88.18695 | 36746 ft | 466 kts | 90° |
| 2026-04-26 04:21 | 22.68924 | 88.25700 | 36747 ft | 466 kts | 90° |
| 2026-04-26 04:21 | 22.68460 | 88.32703 | 36746 ft | 466 kts | 90° |
| 2026-04-26 04:22 | 22.67993 | 88.39707 | 36746 ft | 466 kts | 90° |
| 2026-04-26 04:22 | 22.67474 | 88.45530 | 36749 ft | 469 kts | 95° |
| 2026-04-26 04:23 | 22.66394 | 88.52502 | 36746 ft | 470 kts | 96° |
| 2026-04-26 04:23 | 22.65235 | 88.59454 | 36747 ft | 470 kts | 96° |
| 2026-04-26 04:24 | 22.64060 | 88.66421 | 36746 ft | 470 kts | 96° |
| 2026-04-26 04:24 | 22.62894 | 88.73362 | 36746 ft | 470 kts | 96° |
| 2026-04-26 04:25 | 22.61735 | 88.80273 | 36746 ft | 470 kts | 96° |
| 2026-04-26 04:25 | 22.60566 | 88.87232 | 36747 ft | 470 kts | 96° |
| 2026-04-26 04:26 | 22.59393 | 88.94192 | 36746 ft | 470 kts | 96° |
| 2026-04-26 04:26 | 22.58467 | 89.01169 | 36746 ft | 468 kts | 92° |
| 2026-04-26 04:27 | 22.57792 | 89.08168 | 36746 ft | 467 kts | 92° |
| 2026-04-26 04:27 | 22.57091 | 89.15162 | 36746 ft | 468 kts | 92° |
| 2026-04-26 04:28 | 22.56335 | 89.22153 | 36746 ft | 468 kts | 93° |
| 2026-04-26 04:28 | 22.55557 | 89.29143 | 36746 ft | 468 kts | 93° |
| 2026-04-26 04:29 | 22.54774 | 89.36129 | 36746 ft | 468 kts | 93° |
| 2026-04-26 04:29 | 22.53995 | 89.43073 | 36746 ft | 468 kts | 93° |
| 2026-04-26 04:30 | 22.53210 | 89.50059 | 36746 ft | 468 kts | 93° |
| 2026-04-26 04:30 | 22.52422 | 89.57048 | 36746 ft | 468 kts | 93° |
| 2026-04-26 04:31 | 22.51631 | 89.64032 | 36746 ft | 468 kts | 93° |
| 2026-04-26 04:31 | 22.50836 | 89.71017 | 36747 ft | 468 kts | 93° |
| 2026-04-26 04:32 | 22.50039 | 89.78006 | 36746 ft | 468 kts | 93° |
| 2026-04-26 04:32 | 22.49238 | 89.84995 | 36746 ft | 468 kts | 93° |
| 2026-04-26 04:33 | 22.48434 | 89.91976 | 36747 ft | 468 kts | 93° |
| 2026-04-26 04:33 | 22.47627 | 89.98960 | 36746 ft | 468 kts | 93° |
| 2026-04-26 04:34 | 22.46818 | 90.05939 | 36746 ft | 468 kts | 93° |
| 2026-04-26 04:34 | 22.46006 | 90.12922 | 36747 ft | 468 kts | 93° |
| 2026-04-26 04:35 | 22.45190 | 90.19908 | 36747 ft | 468 kts | 93° |
| 2026-04-26 04:35 | 22.44371 | 90.26885 | 36747 ft | 468 kts | 93° |
| 2026-04-26 04:36 | 22.43550 | 90.33866 | 36747 ft | 468 kts | 93° |
| 2026-04-26 04:36 | 22.42725 | 90.40844 | 36746 ft | 468 kts | 93° |
| 2026-04-26 04:37 | 22.41897 | 90.47824 | 36746 ft | 468 kts | 93° |
| 2026-04-26 04:37 | 22.41065 | 90.54811 | 36746 ft | 468 kts | 93° |
| 2026-04-26 04:38 | 22.40232 | 90.61785 | 36746 ft | 468 kts | 93° |
| 2026-04-26 04:38 | 22.39395 | 90.68763 | 36746 ft | 468 kts | 93° |
| 2026-04-26 04:39 | 22.38555 | 90.75744 | 36746 ft | 468 kts | 93° |
| 2026-04-26 04:39 | 22.37712 | 90.82718 | 36746 ft | 468 kts | 93° |
| 2026-04-26 04:40 | 22.36866 | 90.89697 | 36747 ft | 468 kts | 93° |
| 2026-04-26 04:40 | 22.36018 | 90.96667 | 36746 ft | 468 kts | 94° |
| 2026-04-26 04:41 | 22.35165 | 91.03646 | 36746 ft | 468 kts | 94° |
| 2026-04-26 04:41 | 22.34316 | 91.10573 | 36746 ft | 468 kts | 94° |
| 2026-04-26 04:42 | 22.33458 | 91.17548 | 36746 ft | 468 kts | 94° |
| 2026-04-26 04:42 | 22.32591 | 91.24567 | 36746 ft | 468 kts | 94° |
| 2026-04-26 04:43 | 22.31728 | 91.31536 | 36746 ft | 468 kts | 94° |
| 2026-04-26 04:43 | 22.30867 | 91.38463 | 36746 ft | 468 kts | 94° |
| 2026-04-26 04:44 | 22.30046 | 91.45437 | 36746 ft | 468 kts | 93° |
| 2026-04-26 04:44 | 22.29266 | 91.52409 | 36746 ft | 468 kts | 93° |
| 2026-04-26 04:45 | 22.28477 | 91.59385 | 36746 ft | 468 kts | 93° |
| 2026-04-26 04:45 | 22.27677 | 91.66358 | 36746 ft | 468 kts | 93° |
| 2026-04-26 04:46 | 22.26871 | 91.73327 | 36746 ft | 468 kts | 93° |
| 2026-04-26 04:46 | 22.26103 | 91.80306 | 36745 ft | 466 kts | 90° |
| 2026-04-26 04:47 | 22.26413 | 91.87235 | 36747 ft | 461 kts | 79° |
| 2026-04-26 04:47 | 22.27308 | 91.94074 | 36747 ft | 460 kts | 78° |
| 2026-04-26 04:48 | 22.28774 | 92.04315 | 36747 ft | 460 kts | 78° |
| 2026-04-26 04:48 | 22.29734 | 92.11148 | 36747 ft | 461 kts | 78° |
| 2026-04-26 04:49 | 22.30681 | 92.17989 | 36747 ft | 461 kts | 78° |
| 2026-04-26 04:49 | 22.31621 | 92.24832 | 36746 ft | 461 kts | 78° |
| 2026-04-26 04:50 | 22.32556 | 92.31677 | 36746 ft | 461 kts | 78° |
| 2026-04-26 04:50 | 22.33494 | 92.38530 | 36746 ft | 461 kts | 78° |
| 2026-04-26 04:51 | 22.34432 | 92.45389 | 36744 ft | 461 kts | 78° |
| 2026-04-26 04:51 | 22.35366 | 92.52249 | 36744 ft | 461 kts | 78° |
| 2026-04-26 04:52 | 22.36296 | 92.59117 | 36746 ft | 462 kts | 78° |
| 2026-04-26 04:52 | 22.37222 | 92.65977 | 36746 ft | 461 kts | 78° |
| 2026-04-26 04:53 | 22.38145 | 92.72836 | 36747 ft | 463 kts | 78° |
| 2026-04-26 04:53 | 22.39073 | 92.79728 | 36749 ft | 463 kts | 78° |
| 2026-04-26 04:54 | 22.39999 | 92.86599 | 36746 ft | 462 kts | 78° |
| 2026-04-26 04:54 | 22.40928 | 92.93503 | 36748 ft | 465 kts | 78° |
| 2026-04-26 04:55 | 22.41852 | 93.00409 | 36737 ft | 464 kts | 78° |
| 2026-04-26 04:55 | 22.42773 | 93.07291 | 36753 ft | 468 kts | 78° |
| 2026-04-26 04:56 | 22.43705 | 93.14293 | 36743 ft | 470 kts | 78° |
| 2026-04-26 04:56 | 22.44625 | 93.21304 | 36742 ft | 466 kts | 79° |
| 2026-04-26 04:57 | 22.45544 | 93.28227 | 36746 ft | 470 kts | 79° |
| 2026-04-26 04:57 | 22.46470 | 93.35233 | 36750 ft | 473 kts | 79° |
| 2026-04-26 04:58 | 22.47390 | 93.42254 | 36746 ft | 471 kts | 79° |
| 2026-04-26 04:58 | 22.48307 | 93.49259 | 36750 ft | 473 kts | 79° |
| 2026-04-26 04:59 | 22.49230 | 93.56333 | 36746 ft | 474 kts | 79° |
| 2026-04-26 04:59 | 22.50143 | 93.63387 | 36748 ft | 475 kts | 79° |
| 2026-04-26 05:00 | 22.51058 | 93.70461 | 36746 ft | 474 kts | 79° |
| 2026-04-26 05:00 | 22.51963 | 93.77499 | 36746 ft | 471 kts | 79° |
| 2026-04-26 05:01 | 22.52862 | 93.84495 | 36744 ft | 469 kts | 79° |
| 2026-04-26 05:01 | 22.53755 | 93.91471 | 36746 ft | 467 kts | 79° |
| 2026-04-26 05:02 | 22.54642 | 93.98419 | 36745 ft | 465 kts | 79° |
| 2026-04-26 05:02 | 22.55522 | 94.05334 | 36746 ft | 463 kts | 79° |
| 2026-04-26 05:03 | 22.56395 | 94.12225 | 36746 ft | 462 kts | 79° |
| 2026-04-26 05:03 | 22.57265 | 94.19108 | 36741 ft | 462 kts | 79° |
| 2026-04-26 05:04 | 22.58129 | 94.25973 | 36753 ft | 466 kts | 79° |
| 2026-04-26 05:04 | 22.59001 | 94.32927 | 36747 ft | 465 kts | 79° |
| 2026-04-26 05:05 | 22.59867 | 94.39859 | 36747 ft | 465 kts | 79° |
| 2026-04-26 05:05 | 22.60730 | 94.46797 | 36743 ft | 465 kts | 79° |
| 2026-04-26 05:06 | 22.61587 | 94.53708 | 36746 ft | 463 kts | 79° |
| 2026-04-26 05:06 | 22.62441 | 94.60613 | 36746 ft | 463 kts | 79° |
| 2026-04-26 05:07 | 22.63294 | 94.67531 | 36746 ft | 463 kts | 79° |
| 2026-04-26 05:07 | 22.64141 | 94.74427 | 36746 ft | 462 kts | 79° |
| 2026-04-26 05:08 | 22.64982 | 94.81316 | 36746 ft | 461 kts | 79° |
| 2026-04-26 05:08 | 22.65680 | 94.87042 | 36747 ft | 462 kts | 79° |
| 2026-04-26 05:09 | 22.66517 | 94.93933 | 36747 ft | 462 kts | 79° |
| 2026-04-26 05:09 | 22.67351 | 95.00828 | 36746 ft | 462 kts | 79° |
| 2026-04-26 05:10 | 22.68182 | 95.07719 | 36746 ft | 462 kts | 79° |
| 2026-04-26 05:10 | 22.69011 | 95.14619 | 36746 ft | 462 kts | 79° |
| 2026-04-26 05:11 | 22.69838 | 95.21524 | 36746 ft | 462 kts | 79° |
| 2026-04-26 05:11 | 22.70660 | 95.28416 | 36746 ft | 462 kts | 79° |
| 2026-04-26 05:12 | 22.71479 | 95.35317 | 36746 ft | 461 kts | 79° |
| 2026-04-26 05:12 | 22.72295 | 95.42206 | 36746 ft | 461 kts | 79° |
| 2026-04-26 05:13 | 22.73108 | 95.49099 | 36746 ft | 461 kts | 79° |
| 2026-04-26 05:13 | 22.73918 | 95.56000 | 36746 ft | 461 kts | 79° |
| 2026-04-26 05:14 | 22.74726 | 95.62898 | 36746 ft | 462 kts | 79° |
| 2026-04-26 05:14 | 22.75524 | 95.69749 | 36747 ft | 462 kts | 79° |
| 2026-04-26 05:15 | 22.76326 | 95.76654 | 36747 ft | 462 kts | 79° |
| 2026-04-26 05:15 | 22.77125 | 95.83558 | 36746 ft | 462 kts | 79° |
| 2026-04-26 05:16 | 22.77922 | 95.90472 | 36747 ft | 462 kts | 79° |
| 2026-04-26 05:16 | 22.78715 | 95.97373 | 36746 ft | 462 kts | 79° |
| 2026-04-26 05:17 | 22.79505 | 96.04283 | 36746 ft | 463 kts | 79° |
| 2026-04-26 05:17 | 22.80294 | 96.11210 | 36746 ft | 464 kts | 79° |
| 2026-04-26 05:18 | 22.81083 | 96.18154 | 36748 ft | 466 kts | 80° |
| 2026-04-26 05:18 | 22.81869 | 96.25116 | 36746 ft | 465 kts | 80° |
| 2026-04-26 05:19 | 22.82654 | 96.32079 | 36748 ft | 466 kts | 80° |
| 2026-04-26 05:19 | 22.83437 | 96.39066 | 36745 ft | 467 kts | 80° |
| 2026-04-26 05:20 | 22.84219 | 96.46062 | 36746 ft | 468 kts | 80° |
| 2026-04-26 05:20 | 22.84998 | 96.53067 | 36748 ft | 469 kts | 80° |
| 2026-04-26 05:21 | 22.85774 | 96.60080 | 36744 ft | 468 kts | 80° |
| 2026-04-26 05:21 | 22.86545 | 96.67083 | 36747 ft | 467 kts | 80° |
| 2026-04-26 05:22 | 22.87313 | 96.74077 | 36749 ft | 467 kts | 80° |
| 2026-04-26 05:22 | 22.88081 | 96.81073 | 36746 ft | 467 kts | 80° |
| 2026-04-26 05:23 | 22.88842 | 96.88041 | 36748 ft | 470 kts | 80° |
| 2026-04-26 05:23 | 22.89612 | 96.95132 | 36747 ft | 471 kts | 80° |
| 2026-04-26 05:24 | 22.90371 | 97.02154 | 36747 ft | 472 kts | 80° |
| 2026-04-26 05:24 | 22.91129 | 97.09209 | 36745 ft | 470 kts | 80° |
| 2026-04-26 05:25 | 22.91882 | 97.16237 | 36750 ft | 471 kts | 80° |
| 2026-04-26 05:25 | 22.92636 | 97.23300 | 36744 ft | 470 kts | 80° |
| 2026-04-26 05:26 | 22.93384 | 97.30348 | 36752 ft | 471 kts | 80° |
| 2026-04-26 05:26 | 22.94129 | 97.37403 | 36749 ft | 469 kts | 80° |
| 2026-04-26 05:27 | 22.94869 | 97.44416 | 36746 ft | 467 kts | 80° |
| 2026-04-26 05:27 | 22.95603 | 97.51404 | 36746 ft | 466 kts | 80° |
| 2026-04-26 05:28 | 22.96334 | 97.58396 | 36746 ft | 466 kts | 80° |
| 2026-04-26 05:28 | 22.97062 | 97.65391 | 36747 ft | 467 kts | 80° |
| 2026-04-26 05:29 | 22.97798 | 97.72390 | 36745 ft | 466 kts | 79° |
| 2026-04-26 05:29 | 22.99401 | 97.79147 | 36746 ft | 461 kts | 69° |
| 2026-04-26 05:30 | 23.01578 | 97.85696 | 36747 ft | 461 kts | 67° |
| 2026-04-26 05:30 | 23.03837 | 97.92219 | 36747 ft | 461 kts | 67° |
| 2026-04-26 05:31 | 23.06090 | 97.98740 | 36746 ft | 461 kts | 67° |
| 2026-04-26 05:31 | 23.08328 | 98.05274 | 36745 ft | 462 kts | 67° |
| 2026-04-26 05:32 | 23.10567 | 98.11839 | 36749 ft | 465 kts | 67° |
| 2026-04-26 05:32 | 23.12805 | 98.18418 | 36746 ft | 464 kts | 67° |
| 2026-04-26 05:33 | 23.15028 | 98.24962 | 36739 ft | 464 kts | 67° |
| 2026-04-26 05:33 | 23.17259 | 98.31541 | 36746 ft | 464 kts | 67° |
| 2026-04-26 05:34 | 23.19484 | 98.38107 | 36745 ft | 461 kts | 67° |
| 2026-04-26 05:34 | 23.21695 | 98.44642 | 36746 ft | 460 kts | 67° |
| 2026-04-26 05:35 | 23.23903 | 98.51173 | 36748 ft | 462 kts | 67° |
| 2026-04-26 05:35 | 23.26122 | 98.57748 | 36748 ft | 464 kts | 68° |
| 2026-04-26 05:36 | 23.28331 | 98.64311 | 36746 ft | 462 kts | 67° |
| 2026-04-26 05:36 | 23.30537 | 98.70881 | 36749 ft | 463 kts | 68° |
| 2026-04-26 05:37 | 23.32746 | 98.77457 | 36748 ft | 462 kts | 68° |
| 2026-04-26 05:37 | 23.34951 | 98.84030 | 36751 ft | 464 kts | 68° |
| 2026-04-26 05:38 | 23.37172 | 98.90665 | 36743 ft | 468 kts | 68° |
| 2026-04-26 05:38 | 23.39352 | 98.97378 | 36749 ft | 470 kts | 69° |
| 2026-04-26 05:39 | 23.41429 | 99.04095 | 36745 ft | 466 kts | 69° |
| 2026-04-26 05:39 | 23.43475 | 99.10719 | 36744 ft | 463 kts | 69° |
| 2026-04-26 05:40 | 23.45555 | 99.17409 | 36749 ft | 464 kts | 69° |
| 2026-04-26 05:40 | 23.47623 | 99.24042 | 36747 ft | 468 kts | 69° |
| 2026-04-26 05:41 | 23.49739 | 99.30840 | 36750 ft | 472 kts | 69° |
| 2026-04-26 05:41 | 23.51824 | 99.37556 | 36745 ft | 469 kts | 69° |
| 2026-04-26 05:42 | 23.54499 | 99.43947 | 36745 ft | 461 kts | 60° |
| 2026-04-26 05:42 | 23.57621 | 99.50055 | 36748 ft | 461 kts | 59° |
| 2026-04-26 05:43 | 23.60808 | 99.56123 | 36744 ft | 461 kts | 58° |
| 2026-04-26 05:43 | 23.63996 | 99.62201 | 36751 ft | 463 kts | 58° |
| 2026-04-26 05:44 | 23.67189 | 99.68319 | 36742 ft | 465 kts | 59° |
| 2026-04-26 05:44 | 23.70386 | 99.74464 | 36748 ft | 468 kts | 59° |
| 2026-04-26 05:45 | 23.73611 | 99.80671 | 36748 ft | 471 kts | 59° |
| 2026-04-26 05:45 | 23.76840 | 99.86899 | 36745 ft | 470 kts | 59° |
| 2026-04-26 05:46 | 23.80051 | 99.93099 | 36744 ft | 467 kts | 59° |
| 2026-04-26 05:46 | 23.83251 | 99.99282 | 36747 ft | 469 kts | 59° |
| 2026-04-26 05:47 | 23.86458 | 100.05486 | 36749 ft | 469 kts | 59° |
| 2026-04-26 05:47 | 23.89649 | 100.11667 | 36745 ft | 465 kts | 59° |
| 2026-04-26 05:48 | 23.92821 | 100.17821 | 36746 ft | 465 kts | 59° |
| 2026-04-26 05:48 | 23.96013 | 100.24017 | 36745 ft | 470 kts | 60° |
| 2026-04-26 05:49 | 24.00836 | 100.33400 | 36748 ft | 469 kts | 59° |
| 2026-04-26 05:50 | 24.04009 | 100.39585 | 36743 ft | 463 kts | 59° |
| 2026-04-26 05:50 | 24.07163 | 100.45736 | 36749 ft | 463 kts | 59° |
| 2026-04-26 05:51 | 24.10301 | 100.51865 | 36746 ft | 460 kts | 59° |
| 2026-04-26 05:51 | 24.13433 | 100.58003 | 36744 ft | 464 kts | 59° |
| 2026-04-26 05:52 | 24.16555 | 100.64224 | 36743 ft | 466 kts | 59° |
| 2026-04-26 05:52 | 24.19675 | 100.70464 | 36744 ft | 467 kts | 59° |
| 2026-04-26 05:53 | 24.22774 | 100.76658 | 36747 ft | 466 kts | 59° |
| 2026-04-26 05:53 | 24.25882 | 100.82880 | 36749 ft | 466 kts | 59° |
| 2026-04-26 05:54 | 24.28997 | 100.89119 | 36749 ft | 466 kts | 59° |
| 2026-04-26 05:54 | 24.32097 | 100.95339 | 36744 ft | 463 kts | 59° |
| 2026-04-26 05:55 | 24.35182 | 101.01533 | 36750 ft | 464 kts | 59° |
| 2026-04-26 05:55 | 24.38270 | 101.07739 | 36746 ft | 464 kts | 59° |
| 2026-04-26 05:56 | 24.40842 | 101.12915 | 36747 ft | 466 kts | 59° |
| 2026-04-26 05:56 | 24.43960 | 101.19200 | 36747 ft | 470 kts | 60° |
| 2026-04-26 05:57 | 24.47081 | 101.25498 | 36746 ft | 467 kts | 60° |
| 2026-04-26 05:57 | 24.50160 | 101.31724 | 36745 ft | 463 kts | 60° |
| 2026-04-26 05:58 | 24.53228 | 101.37932 | 36743 ft | 462 kts | 59° |
| 2026-04-26 05:58 | 24.56307 | 101.44165 | 36745 ft | 465 kts | 60° |
| 2026-04-26 05:59 | 24.59395 | 101.50431 | 36746 ft | 465 kts | 60° |
| 2026-04-26 05:59 | 24.62459 | 101.56658 | 36747 ft | 463 kts | 60° |
| 2026-04-26 06:00 | 24.65508 | 101.62922 | 36746 ft | 467 kts | 60° |
| 2026-04-26 06:00 | 24.68534 | 101.69198 | 36747 ft | 467 kts | 60° |
| 2026-04-26 06:01 | 24.71594 | 101.75552 | 36747 ft | 467 kts | 60° |
| 2026-04-26 06:01 | 24.74609 | 101.81811 | 36746 ft | 466 kts | 60° |
| 2026-04-26 06:02 | 24.77638 | 101.88100 | 36747 ft | 465 kts | 60° |
| 2026-04-26 06:02 | 24.80659 | 101.94382 | 36745 ft | 465 kts | 60° |
| 2026-04-26 06:03 | 24.83689 | 102.00693 | 36749 ft | 466 kts | 60° |
| 2026-04-26 06:03 | 24.86712 | 102.06995 | 36743 ft | 466 kts | 60° |
| 2026-04-26 06:04 | 24.89737 | 102.13310 | 36746 ft | 467 kts | 60° |
| 2026-04-26 06:04 | 24.92763 | 102.19636 | 36750 ft | 467 kts | 60° |
| 2026-04-26 06:05 | 24.95789 | 102.25973 | 36747 ft | 467 kts | 60° |
| 2026-04-26 06:05 | 24.98805 | 102.32297 | 36747 ft | 467 kts | 60° |
| 2026-04-26 06:06 | 25.01823 | 102.38635 | 36746 ft | 466 kts | 60° |
| 2026-04-26 06:06 | 25.04836 | 102.44976 | 36749 ft | 468 kts | 60° |
| 2026-04-26 06:07 | 25.07977 | 102.51281 | 36746 ft | 468 kts | 55° |
| 2026-04-26 06:07 | 25.11973 | 102.56925 | 36744 ft | 466 kts | 49° |
| 2026-04-26 06:08 | 25.16179 | 102.62372 | 36750 ft | 467 kts | 48° |
| 2026-04-26 06:08 | 25.20423 | 102.67798 | 36747 ft | 466 kts | 49° |
| 2026-04-26 06:09 | 25.24645 | 102.73226 | 36748 ft | 466 kts | 49° |
| 2026-04-26 06:09 | 25.28861 | 102.78671 | 36746 ft | 467 kts | 49° |
| 2026-04-26 06:10 | 25.33076 | 102.84128 | 36746 ft | 466 kts | 49° |
| 2026-04-26 06:10 | 25.37286 | 102.89583 | 36747 ft | 467 kts | 49° |
| 2026-04-26 06:11 | 25.41296 | 102.95262 | 36747 ft | 470 kts | 55° |
| 2026-04-26 06:11 | 25.44958 | 103.01262 | 36747 ft | 470 kts | 55° |
| 2026-04-26 06:12 | 25.48532 | 103.07258 | 36746 ft | 470 kts | 55° |
| 2026-04-26 06:12 | 25.52120 | 103.13291 | 36745 ft | 468 kts | 55° |
| 2026-04-26 06:13 | 25.55692 | 103.19290 | 36746 ft | 467 kts | 55° |
| 2026-04-26 06:13 | 25.59269 | 103.25293 | 36747 ft | 466 kts | 55° |
| 2026-04-26 06:14 | 25.62838 | 103.31291 | 36748 ft | 466 kts | 55° |
| 2026-04-26 06:14 | 25.66411 | 103.37299 | 36747 ft | 467 kts | 55° |
| 2026-04-26 06:15 | 25.69977 | 103.43308 | 36748 ft | 467 kts | 55° |
| 2026-04-26 06:15 | 25.73542 | 103.49324 | 36747 ft | 467 kts | 55° |
| 2026-04-26 06:16 | 25.77103 | 103.55340 | 36749 ft | 466 kts | 55° |
| 2026-04-26 06:16 | 25.80660 | 103.61354 | 36747 ft | 466 kts | 55° |
| 2026-04-26 06:17 | 25.84210 | 103.67368 | 36748 ft | 466 kts | 55° |
| 2026-04-26 06:17 | 25.87760 | 103.73391 | 36748 ft | 466 kts | 55° |
| 2026-04-26 06:18 | 25.91312 | 103.79422 | 36746 ft | 466 kts | 55° |
| 2026-04-26 06:18 | 25.94859 | 103.85452 | 36748 ft | 467 kts | 55° |
| 2026-04-26 06:19 | 25.98412 | 103.91502 | 36746 ft | 467 kts | 56° |
| 2026-04-26 06:19 | 26.02001 | 103.97526 | 36746 ft | 467 kts | 55° |
| 2026-04-26 06:20 | 26.05607 | 104.03532 | 36746 ft | 467 kts | 55° |
| 2026-04-26 06:20 | 26.09208 | 104.09550 | 36746 ft | 467 kts | 55° |
| 2026-04-26 06:21 | 26.12790 | 104.15561 | 36744 ft | 467 kts | 55° |
| 2026-04-26 06:21 | 26.16359 | 104.21563 | 36748 ft | 468 kts | 55° |
| 2026-04-26 06:22 | 26.19970 | 104.27640 | 36743 ft | 466 kts | 55° |
| 2026-04-26 06:22 | 26.23516 | 104.33620 | 36747 ft | 466 kts | 55° |
| 2026-04-26 06:23 | 26.27093 | 104.39657 | 36747 ft | 467 kts | 55° |
| 2026-04-26 06:23 | 26.30672 | 104.45702 | 36746 ft | 467 kts | 55° |
| 2026-04-26 06:24 | 26.34240 | 104.51740 | 36741 ft | 466 kts | 55° |
| 2026-04-26 06:24 | 26.37810 | 104.57783 | 36747 ft | 467 kts | 55° |
| 2026-04-26 06:25 | 26.41374 | 104.63830 | 36748 ft | 467 kts | 55° |
| 2026-04-26 06:25 | 26.44926 | 104.69865 | 36754 ft | 463 kts | 55° |
| 2026-04-26 06:26 | 26.48473 | 104.75899 | 36748 ft | 466 kts | 55° |
| 2026-04-26 06:26 | 26.52026 | 104.81957 | 36749 ft | 467 kts | 55° |
| 2026-04-26 06:27 | 26.55588 | 104.88035 | 36950 ft | 467 kts | 55° |
| 2026-04-26 06:27 | 26.57366 | 104.91069 | 37223 ft | 466 kts | 55° |
| 2026-04-26 06:27 | 26.59138 | 104.94096 | 37465 ft | 465 kts | 55° |
| 2026-04-26 06:27 | 26.60905 | 104.97118 | 37666 ft | 465 kts | 55° |
| 2026-04-26 06:28 | 26.62672 | 105.00141 | 37846 ft | 465 kts | 55° |
| 2026-04-26 06:28 | 26.64434 | 105.03185 | 38010 ft | 466 kts | 57° |
| 2026-04-26 06:28 | 26.65744 | 105.06510 | 38148 ft | 470 kts | 70° |
| 2026-04-26 06:28 | 26.66736 | 105.09985 | 38341 ft | 469 kts | 70° |
| 2026-04-26 06:29 | 26.67658 | 105.13478 | 38540 ft | 469 kts | 71° |
| 2026-04-26 06:29 | 26.68625 | 105.16966 | 38699 ft | 469 kts | 69° |
| 2026-04-26 06:29 | 26.69704 | 105.20393 | 38873 ft | 468 kts | 67° |
| 2026-04-26 06:29 | 26.70901 | 105.23788 | 38999 ft | 467 kts | 65° |
| 2026-04-26 06:30 | 26.72172 | 105.27126 | 39122 ft | 468 kts | 64° |
| 2026-04-26 06:30 | 26.73493 | 105.30453 | 39247 ft | 468 kts | 64° |
| 2026-04-26 06:30 | 26.74831 | 105.33760 | 39422 ft | 467 kts | 63° |
| 2026-04-26 06:30 | 26.76172 | 105.37063 | 39591 ft | 466 kts | 63° |
| 2026-04-26 06:31 | 26.77507 | 105.40364 | 39739 ft | 465 kts | 64° |
| 2026-04-26 06:31 | 26.78836 | 105.43664 | 39854 ft | 465 kts | 64° |
| 2026-04-26 06:31 | 26.80160 | 105.46969 | 39951 ft | 466 kts | 64° |
| 2026-04-26 06:31 | 26.81483 | 105.50282 | 40080 ft | 466 kts | 64° |
| 2026-04-26 06:32 | 26.82802 | 105.53590 | 40207 ft | 465 kts | 64° |
| 2026-04-26 06:32 | 26.85412 | 105.60155 | 40426 ft | 465 kts | 64° |
| 2026-04-26 06:32 | 26.86744 | 105.63509 | 40567 ft | 464 kts | 64° |
| 2026-04-26 06:33 | 26.88055 | 105.66812 | 40636 ft | 464 kts | 64° |
| 2026-04-26 06:33 | 26.90681 | 105.73432 | 40728 ft | 466 kts | 64° |
| 2026-04-26 06:34 | 26.93306 | 105.80062 | 40744 ft | 464 kts | 64° |
| 2026-04-26 06:34 | 26.95900 | 105.86625 | 40762 ft | 464 kts | 64° |
| 2026-04-26 06:35 | 26.98512 | 105.93243 | 40744 ft | 464 kts | 64° |
| 2026-04-26 06:35 | 27.01118 | 105.99855 | 40745 ft | 464 kts | 64° |
| 2026-04-26 06:36 | 27.03748 | 106.06466 | 40744 ft | 463 kts | 62° |
| 2026-04-26 06:36 | 27.06679 | 106.12895 | 40748 ft | 462 kts | 60° |
| 2026-04-26 06:37 | 27.09692 | 106.19267 | 40762 ft | 462 kts | 60° |
| 2026-04-26 06:37 | 27.12660 | 106.25669 | 40763 ft | 462 kts | 61° |
| 2026-04-26 06:38 | 27.15589 | 106.32088 | 40744 ft | 463 kts | 61° |
| 2026-04-26 06:38 | 27.18508 | 106.38516 | 40763 ft | 463 kts | 61° |
| 2026-04-26 06:39 | 27.21433 | 106.44963 | 40742 ft | 462 kts | 61° |
| 2026-04-26 06:39 | 27.24352 | 106.51394 | 40744 ft | 462 kts | 61° |
| 2026-04-26 06:40 | 27.27268 | 106.57823 | 40747 ft | 461 kts | 61° |
| 2026-04-26 06:40 | 27.30174 | 106.64246 | 40748 ft | 460 kts | 61° |
| 2026-04-26 06:41 | 27.33073 | 106.70662 | 40745 ft | 460 kts | 61° |
| 2026-04-26 06:41 | 27.35969 | 106.77084 | 40743 ft | 461 kts | 61° |
| 2026-04-26 06:42 | 27.38853 | 106.83514 | 40743 ft | 460 kts | 61° |
| 2026-04-26 06:42 | 27.41244 | 106.88862 | 40744 ft | 461 kts | 61° |
| 2026-04-26 06:43 | 27.44123 | 106.95312 | 40743 ft | 461 kts | 62° |
| 2026-04-26 06:43 | 27.47006 | 107.01765 | 40744 ft | 461 kts | 61° |
| 2026-04-26 06:44 | 27.49912 | 107.08192 | 40746 ft | 461 kts | 61° |
| 2026-04-26 06:44 | 27.52827 | 107.14624 | 40746 ft | 461 kts | 61° |
| 2026-04-26 06:45 | 27.55730 | 107.21053 | 40749 ft | 461 kts | 61° |
| 2026-04-26 06:45 | 27.58635 | 107.27489 | 40759 ft | 460 kts | 61° |
| 2026-04-26 06:46 | 27.61536 | 107.33932 | 40745 ft | 461 kts | 61° |
| 2026-04-26 06:46 | 27.64433 | 107.40379 | 40746 ft | 461 kts | 61° |
| 2026-04-26 06:47 | 27.67326 | 107.46822 | 40744 ft | 461 kts | 61° |
| 2026-04-26 06:47 | 27.70221 | 107.53284 | 40749 ft | 461 kts | 61° |
| 2026-04-26 06:48 | 27.73109 | 107.59737 | 40743 ft | 460 kts | 61° |
| 2026-04-26 06:48 | 27.75999 | 107.66200 | 40745 ft | 461 kts | 61° |
| 2026-04-26 06:49 | 27.78881 | 107.72662 | 40747 ft | 461 kts | 61° |
| 2026-04-26 06:49 | 27.81742 | 107.79087 | 40744 ft | 461 kts | 62° |
| 2026-04-26 06:50 | 27.84676 | 107.85559 | 40743 ft | 459 kts | 60° |
| 2026-04-26 06:50 | 27.87606 | 107.91925 | 40742 ft | 459 kts | 60° |
| 2026-04-26 06:51 | 27.90543 | 107.98333 | 40742 ft | 459 kts | 61° |
| 2026-04-26 06:51 | 27.94930 | 108.07965 | 40746 ft | 460 kts | 61° |
| 2026-04-26 06:52 | 27.97850 | 108.14397 | 40744 ft | 460 kts | 61° |
| 2026-04-26 06:52 | 28.00773 | 108.20842 | 40743 ft | 460 kts | 61° |
| 2026-04-26 06:53 | 28.03685 | 108.27276 | 40746 ft | 459 kts | 61° |
| 2026-04-26 06:53 | 28.06598 | 108.33719 | 40739 ft | 459 kts | 61° |
| 2026-04-26 06:54 | 28.09511 | 108.40170 | 40762 ft | 460 kts | 61° |
| 2026-04-26 06:54 | 28.12418 | 108.46621 | 40744 ft | 459 kts | 61° |
| 2026-04-26 06:55 | 28.15317 | 108.53062 | 40744 ft | 459 kts | 61° |
| 2026-04-26 06:55 | 28.18141 | 108.59347 | 39847 ft | 458 kts | 59° |
| 2026-04-26 06:56 | 28.19492 | 108.62356 | 41001 ft | 456 kts | 58° |
| 2026-04-26 06:56 | 28.20923 | 108.65541 | 40171 ft | 454 kts | 63° |
| 2026-04-26 06:56 | 28.23774 | 108.71905 | 40462 ft | 450 kts | 58° |
| 2026-04-26 06:57 | 28.25182 | 108.75058 | 40713 ft | 446 kts | 58° |
| 2026-04-26 06:57 | 28.26576 | 108.78187 | 40887 ft | 443 kts | 58° |
| 2026-04-26 06:57 | 28.29377 | 108.84457 | 40894 ft | 447 kts | 58° |
| 2026-04-26 06:58 | 28.32206 | 108.90794 | 40882 ft | 452 kts | 59° |
| 2026-04-26 06:58 | 28.35056 | 108.97195 | 40880 ft | 457 kts | 59° |
| 2026-04-26 06:59 | 28.37937 | 109.03677 | 40879 ft | 463 kts | 59° |
| 2026-04-26 06:59 | 28.40847 | 109.10236 | 40877 ft | 468 kts | 59° |
| 2026-04-26 07:00 | 28.43789 | 109.16880 | 40890 ft | 473 kts | 59° |
| 2026-04-26 07:00 | 28.46761 | 109.23617 | 40876 ft | 480 kts | 59° |
| 2026-04-26 07:01 | 28.49769 | 109.30450 | 40870 ft | 487 kts | 59° |
| 2026-04-26 07:01 | 28.52818 | 109.37387 | 40864 ft | 494 kts | 59° |
| 2026-04-26 07:02 | 28.55896 | 109.44426 | 40869 ft | 501 kts | 60° |
| 2026-04-26 07:02 | 28.58564 | 109.51762 | 40856 ft | 509 kts | 65° |
| 2026-04-26 07:03 | 28.61168 | 109.59344 | 40876 ft | 515 kts | 65° |
| 2026-04-26 07:03 | 28.63743 | 109.66928 | 40875 ft | 519 kts | 65° |
| 2026-04-26 07:04 | 28.66420 | 109.74582 | 40865 ft | 520 kts | 64° |
| 2026-04-26 07:04 | 28.69177 | 109.82183 | 40866 ft | 520 kts | 64° |
| 2026-04-26 07:05 | 28.71928 | 109.89797 | 40868 ft | 519 kts | 64° |
| 2026-04-26 07:05 | 28.74655 | 109.97416 | 40868 ft | 519 kts | 64° |
| 2026-04-26 07:06 | 28.77373 | 110.05044 | 40868 ft | 519 kts | 64° |
| 2026-04-26 07:06 | 28.80077 | 110.12651 | 40875 ft | 519 kts | 64° |
| 2026-04-26 07:07 | 28.82794 | 110.20307 | 40872 ft | 519 kts | 65° |
| 2026-04-26 07:07 | 28.85492 | 110.27931 | 40881 ft | 519 kts | 65° |
| 2026-04-26 07:08 | 28.88191 | 110.35556 | 40873 ft | 518 kts | 64° |
| 2026-04-26 07:08 | 28.90884 | 110.43200 | 40874 ft | 518 kts | 65° |
| 2026-04-26 07:09 | 28.93567 | 110.50832 | 40865 ft | 518 kts | 65° |
| 2026-04-26 07:09 | 28.96240 | 110.58447 | 40866 ft | 517 kts | 65° |
| 2026-04-26 07:11 | 29.02898 | 110.77461 | 40871 ft | 517 kts | 64° |
| 2026-04-26 07:11 | 29.05602 | 110.85076 | 40858 ft | 517 kts | 64° |
| 2026-04-26 07:12 | 29.08310 | 110.92694 | 40857 ft | 518 kts | 64° |
| 2026-04-26 07:12 | 29.11013 | 111.00333 | 40856 ft | 518 kts | 64° |
| 2026-04-26 07:13 | 29.13702 | 111.07965 | 40849 ft | 518 kts | 64° |
| 2026-04-26 07:13 | 29.16388 | 111.15604 | 40852 ft | 518 kts | 64° |
| 2026-04-26 07:14 | 29.19073 | 111.23257 | 40849 ft | 518 kts | 64° |
| 2026-04-26 07:14 | 29.21754 | 111.30915 | 40858 ft | 519 kts | 64° |
| 2026-04-26 07:15 | 29.24438 | 111.38598 | 40850 ft | 520 kts | 64° |
| 2026-04-26 07:15 | 29.27118 | 111.46283 | 40849 ft | 520 kts | 64° |
| 2026-04-26 07:16 | 29.29794 | 111.53977 | 40845 ft | 520 kts | 64° |
| 2026-04-26 07:16 | 29.32471 | 111.61689 | 40848 ft | 520 kts | 64° |
| 2026-04-26 07:17 | 29.35771 | 111.68973 | 40843 ft | 513 kts | 53° |
| 2026-04-26 07:17 | 29.39153 | 111.75038 | 40844 ft | 512 kts | 52° |
| 2026-04-26 07:18 | 29.43067 | 111.81844 | 40848 ft | 512 kts | 51° |
| 2026-04-26 07:18 | 29.46991 | 111.88668 | 40849 ft | 512 kts | 52° |
| 2026-04-26 07:19 | 29.50875 | 111.95463 | 40856 ft | 512 kts | 52° |
| 2026-04-26 07:19 | 29.54776 | 112.02317 | 40843 ft | 512 kts | 52° |
| 2026-04-26 07:20 | 29.58669 | 112.09172 | 40855 ft | 512 kts | 52° |
| 2026-04-26 07:20 | 29.62589 | 112.16085 | 40854 ft | 513 kts | 52° |
| 2026-04-26 07:21 | 29.66462 | 112.22924 | 40855 ft | 514 kts | 52° |
| 2026-04-26 07:21 | 29.70358 | 112.29815 | 40851 ft | 514 kts | 52° |
| 2026-04-26 07:22 | 29.74256 | 112.36723 | 40855 ft | 514 kts | 52° |
| 2026-04-26 07:22 | 29.78132 | 112.43641 | 40851 ft | 514 kts | 52° |
| 2026-04-26 07:23 | 29.82006 | 112.50579 | 40867 ft | 516 kts | 52° |
| 2026-04-26 07:23 | 29.85893 | 112.57544 | 40861 ft | 517 kts | 52° |
| 2026-04-26 07:24 | 29.89777 | 112.64513 | 40847 ft | 518 kts | 52° |
| 2026-04-26 07:24 | 29.93669 | 112.71506 | 40846 ft | 518 kts | 52° |
| 2026-04-26 07:25 | 29.97550 | 112.78492 | 40874 ft | 518 kts | 52° |
| 2026-04-26 07:25 | 30.01430 | 112.85489 | 40872 ft | 519 kts | 51° |
| 2026-04-26 07:26 | 30.05323 | 112.92519 | 40855 ft | 520 kts | 51° |
| 2026-04-26 07:26 | 30.09218 | 112.99566 | 40861 ft | 521 kts | 51° |
| 2026-04-26 07:27 | 30.13105 | 113.06614 | 40862 ft | 521 kts | 52° |
| 2026-04-26 07:27 | 30.16995 | 113.13679 | 40867 ft | 521 kts | 51° |
| 2026-04-26 07:28 | 30.20883 | 113.20751 | 40879 ft | 521 kts | 51° |
| 2026-04-26 07:28 | 30.24152 | 113.26617 | 40872 ft | 522 kts | 50° |
| 2026-04-26 07:29 | 30.28118 | 113.33650 | 40864 ft | 522 kts | 50° |
| 2026-04-26 07:29 | 30.32082 | 113.40702 | 40873 ft | 522 kts | 51° |
| 2026-04-26 07:30 | 30.36028 | 113.47756 | 40861 ft | 522 kts | 50° |
| 2026-04-26 07:30 | 30.39971 | 113.54827 | 40864 ft | 522 kts | 50° |
| 2026-04-26 07:31 | 30.43907 | 113.61896 | 40860 ft | 523 kts | 50° |
| 2026-04-26 07:31 | 30.47851 | 113.68991 | 40859 ft | 523 kts | 50° |
| 2026-04-26 07:32 | 30.51790 | 113.76092 | 40878 ft | 524 kts | 50° |
| 2026-04-26 07:32 | 30.55718 | 113.83187 | 40867 ft | 522 kts | 50° |
| 2026-04-26 07:33 | 30.59642 | 113.90292 | 40873 ft | 522 kts | 50° |
| 2026-04-26 07:33 | 30.63533 | 113.97332 | 40862 ft | 522 kts | 50° |
| 2026-04-26 07:34 | 30.67454 | 114.04425 | 40861 ft | 522 kts | 50° |
| 2026-04-26 07:34 | 30.71366 | 114.11524 | 40856 ft | 521 kts | 50° |
| 2026-04-26 07:35 | 30.75252 | 114.18607 | 40855 ft | 522 kts | 51° |
| 2026-04-26 07:35 | 30.78396 | 114.26323 | 40874 ft | 531 kts | 62° |
| 2026-04-26 07:36 | 30.81096 | 114.34329 | 40857 ft | 532 kts | 64° |
| 2026-04-26 07:36 | 30.83661 | 114.42400 | 40871 ft | 532 kts | 64° |
| 2026-04-26 07:37 | 30.86221 | 114.50478 | 40869 ft | 532 kts | 64° |
| 2026-04-26 07:37 | 30.88826 | 114.58538 | 40872 ft | 532 kts | 63° |
| 2026-04-26 07:38 | 30.91440 | 114.66584 | 40874 ft | 531 kts | 63° |
| 2026-04-26 07:38 | 30.94049 | 114.74637 | 40890 ft | 531 kts | 63° |
| 2026-04-26 07:39 | 30.96649 | 114.82698 | 40879 ft | 532 kts | 64° |
| 2026-04-26 07:39 | 30.99244 | 114.90767 | 40874 ft | 532 kts | 64° |
| 2026-04-26 07:40 | 31.01841 | 114.98852 | 40873 ft | 532 kts | 64° |
| 2026-04-26 07:40 | 31.04425 | 115.06936 | 40879 ft | 532 kts | 64° |
| 2026-04-26 07:41 | 31.07003 | 115.15025 | 40883 ft | 532 kts | 64° |
| 2026-04-26 07:41 | 31.09576 | 115.23112 | 40896 ft | 532 kts | 64° |
| 2026-04-26 07:42 | 31.12128 | 115.31203 | 40894 ft | 531 kts | 64° |
| 2026-04-26 07:42 | 31.14727 | 115.39268 | 40898 ft | 531 kts | 63° |
| 2026-04-26 07:43 | 31.17360 | 115.47343 | 40891 ft | 532 kts | 63° |
| 2026-04-26 07:43 | 31.19959 | 115.55361 | 40899 ft | 532 kts | 63° |
| 2026-04-26 07:44 | 31.22567 | 115.63461 | 40899 ft | 532 kts | 63° |
| 2026-04-26 07:44 | 31.25164 | 115.71554 | 40901 ft | 532 kts | 63° |
| 2026-04-26 07:45 | 31.27764 | 115.79670 | 40899 ft | 533 kts | 63° |
| 2026-04-26 07:45 | 31.30356 | 115.87784 | 40904 ft | 533 kts | 64° |
| 2026-04-26 07:46 | 31.32959 | 115.95892 | 40907 ft | 532 kts | 63° |
| 2026-04-26 07:46 | 31.35602 | 116.03964 | 40893 ft | 531 kts | 63° |
| 2026-04-26 07:47 | 31.38238 | 116.12052 | 40885 ft | 531 kts | 63° |
| 2026-04-26 07:47 | 31.40861 | 116.20131 | 40893 ft | 532 kts | 63° |
| 2026-04-26 07:48 | 31.43483 | 116.28220 | 40891 ft | 532 kts | 63° |
| 2026-04-26 07:48 | 31.46099 | 116.36325 | 40879 ft | 531 kts | 63° |
| 2026-04-26 07:49 | 31.48704 | 116.44420 | 40882 ft | 531 kts | 63° |
| 2026-04-26 07:49 | 31.51307 | 116.52527 | 40866 ft | 531 kts | 63° |
| 2026-04-26 07:50 | 31.55198 | 116.64691 | 40893 ft | 530 kts | 63° |
| 2026-04-26 07:50 | 31.57776 | 116.72773 | 40880 ft | 529 kts | 63° |
| 2026-04-26 07:51 | 31.60352 | 116.80869 | 40884 ft | 529 kts | 63° |
| 2026-04-26 07:51 | 31.62918 | 116.88952 | 40893 ft | 529 kts | 63° |
| 2026-04-26 07:52 | 31.65482 | 116.97052 | 40890 ft | 529 kts | 63° |
| 2026-04-26 07:52 | 31.68044 | 117.05162 | 40893 ft | 529 kts | 64° |
| 2026-04-26 07:53 | 31.70564 | 117.13272 | 40902 ft | 529 kts | 64° |
| 2026-04-26 07:53 | 31.73053 | 117.21342 | 40896 ft | 528 kts | 64° |
| 2026-04-26 07:54 | 31.75190 | 117.29687 | 40901 ft | 537 kts | 76° |
| 2026-04-26 07:54 | 31.75492 | 117.34088 | 40897 ft | 544 kts | 87° |
| 2026-04-26 07:54 | 31.75363 | 117.38473 | 40900 ft | 546 kts | 90° |
| 2026-04-26 07:55 | 31.74784 | 117.47389 | 40895 ft | 548 kts | 92° |
| 2026-04-26 07:55 | 31.74097 | 117.56299 | 40901 ft | 548 kts | 91° |
| 2026-04-26 07:56 | 31.73431 | 117.65220 | 40910 ft | 548 kts | 91° |
| 2026-04-26 07:56 | 31.72787 | 117.74139 | 40897 ft | 548 kts | 91° |
| 2026-04-26 07:57 | 31.72146 | 117.83059 | 40911 ft | 548 kts | 91° |
| 2026-04-26 07:57 | 31.71499 | 117.91980 | 40912 ft | 548 kts | 91° |
| 2026-04-26 07:58 | 31.70844 | 118.00893 | 40907 ft | 548 kts | 91° |
| 2026-04-26 07:58 | 31.70183 | 118.09804 | 40914 ft | 548 kts | 91° |
| 2026-04-26 07:59 | 31.69555 | 118.18738 | 40910 ft | 549 kts | 91° |
| 2026-04-26 07:59 | 31.69256 | 118.23206 | 40791 ft | 548 kts | 91° |
| 2026-04-26 07:59 | 31.68958 | 118.27662 | 40546 ft | 548 kts | 91° |
| 2026-04-26 08:00 | 31.68657 | 118.32125 | 40295 ft | 548 kts | 91° |
| 2026-04-26 08:00 | 31.68353 | 118.36584 | 40005 ft | 548 kts | 91° |
| 2026-04-26 08:00 | 31.68045 | 118.41040 | 39295 ft | 550 kts | 90° |
| 2026-04-26 08:00 | 31.67735 | 118.45527 | 38495 ft | 554 kts | 90° |
| 2026-04-26 08:01 | 31.67421 | 118.50028 | 37728 ft | 554 kts | 90° |
| 2026-04-26 08:01 | 31.67102 | 118.54520 | 37085 ft | 552 kts | 90° |
| 2026-04-26 08:01 | 31.66783 | 118.59014 | 36437 ft | 551 kts | 90° |
| 2026-04-26 08:01 | 31.66464 | 118.63509 | 35765 ft | 551 kts | 90° |
| 2026-04-26 08:02 | 31.66145 | 118.67987 | 35097 ft | 551 kts | 90° |
| 2026-04-26 08:02 | 31.65830 | 118.72465 | 34406 ft | 551 kts | 90° |
| 2026-04-26 08:02 | 31.65530 | 118.76940 | 33601 ft | 553 kts | 89° |
| 2026-04-26 08:02 | 31.65241 | 118.81438 | 32908 ft | 550 kts | 89° |
| 2026-04-26 08:03 | 31.64951 | 118.85903 | 32340 ft | 546 kts | 89° |
| 2026-04-26 08:03 | 31.64652 | 118.90324 | 31771 ft | 541 kts | 89° |
| 2026-04-26 08:03 | 31.64352 | 118.94709 | 31217 ft | 536 kts | 89° |
| 2026-04-26 08:03 | 31.64302 | 118.98977 | 30803 ft | 526 kts | 82° |
| 2026-04-26 08:04 | 31.63949 | 119.03276 | 30536 ft | 537 kts | 98° |
| 2026-04-26 08:04 | 31.62761 | 119.07456 | 30299 ft | 542 kts | 112° |
| 2026-04-26 08:04 | 31.60836 | 119.11248 | 30061 ft | 543 kts | 126° |
| 2026-04-26 08:04 | 31.58281 | 119.14496 | 29745 ft | 537 kts | 139° |
| 2026-04-26 08:05 | 31.55293 | 119.17018 | 29250 ft | 524 kts | 152° |
| 2026-04-26 08:05 | 31.52016 | 119.18721 | 28716 ft | 509 kts | 165° |
| 2026-04-26 08:05 | 31.48606 | 119.19633 | 28242 ft | 495 kts | 173° |
| 2026-04-26 08:05 | 31.45244 | 119.20391 | 27786 ft | 490 kts | 169° |
| 2026-04-26 08:06 | 31.41984 | 119.21539 | 27284 ft | 489 kts | 160° |
| 2026-04-26 08:06 | 31.38909 | 119.23192 | 26808 ft | 486 kts | 150° |
| 2026-04-26 08:06 | 31.36037 | 119.25241 | 26312 ft | 482 kts | 144° |
| 2026-04-26 08:06 | 31.33322 | 119.27520 | 25805 ft | 477 kts | 140° |
| 2026-04-26 08:07 | 31.30710 | 119.29887 | 25305 ft | 472 kts | 139° |
| 2026-04-26 08:07 | 31.28158 | 119.32264 | 24806 ft | 469 kts | 138° |
| 2026-04-26 08:07 | 31.25605 | 119.34643 | 24308 ft | 467 kts | 139° |
| 2026-04-26 08:07 | 31.23069 | 119.36978 | 23807 ft | 462 kts | 139° |
| 2026-04-26 08:08 | 31.20547 | 119.39266 | 23259 ft | 457 kts | 139° |
| 2026-04-26 08:08 | 31.18026 | 119.41469 | 22723 ft | 449 kts | 142° |
| 2026-04-26 08:08 | 31.15479 | 119.43539 | 22239 ft | 444 kts | 141° |
| 2026-04-26 08:08 | 31.12958 | 119.45625 | 21744 ft | 442 kts | 141° |
| 2026-04-26 08:09 | 31.10476 | 119.47725 | 21242 ft | 439 kts | 140° |
| 2026-04-26 08:09 | 31.08023 | 119.49832 | 20736 ft | 436 kts | 140° |
| 2026-04-26 08:09 | 31.05601 | 119.51931 | 20243 ft | 431 kts | 140° |
| 2026-04-26 08:09 | 31.03211 | 119.54009 | 19741 ft | 426 kts | 139° |
| 2026-04-26 08:10 | 31.00850 | 119.56070 | 19258 ft | 420 kts | 139° |
| 2026-04-26 08:10 | 30.98535 | 119.58102 | 18766 ft | 416 kts | 139° |
| 2026-04-26 08:10 | 30.96253 | 119.60109 | 18290 ft | 415 kts | 139° |
| 2026-04-26 08:10 | 30.93967 | 119.62117 | 17737 ft | 408 kts | 138° |
| 2026-04-26 08:11 | 30.91723 | 119.64092 | 17261 ft | 401 kts | 137° |
| 2026-04-26 08:11 | 30.89499 | 119.66058 | 16785 ft | 400 kts | 137° |
| 2026-04-26 08:11 | 30.87282 | 119.68008 | 16297 ft | 398 kts | 138° |
| 2026-04-26 08:11 | 30.85087 | 119.69929 | 15832 ft | 392 kts | 138° |
| 2026-04-26 08:12 | 30.82931 | 119.71812 | 15369 ft | 385 kts | 137° |
| 2026-04-26 08:12 | 30.80797 | 119.73681 | 14901 ft | 384 kts | 137° |
| 2026-04-26 08:12 | 30.78663 | 119.75552 | 14428 ft | 383 kts | 137° |
| 2026-04-26 08:12 | 30.76544 | 119.77407 | 13964 ft | 379 kts | 137° |
| 2026-04-26 08:13 | 30.74458 | 119.79223 | 13481 ft | 371 kts | 136° |
| 2026-04-26 08:13 | 30.72593 | 119.81260 | 13018 ft | 365 kts | 120° |
| 2026-04-26 08:13 | 30.71457 | 119.83833 | 12478 ft | 356 kts | 99° |
| 2026-04-26 08:13 | 30.70748 | 119.86600 | 11995 ft | 360 kts | 97° |
| 2026-04-26 08:14 | 30.70037 | 119.89398 | 11563 ft | 362 kts | 99° |
| 2026-04-26 08:14 | 30.69285 | 119.92148 | 11312 ft | 347 kts | 98° |
| 2026-04-26 08:14 | 30.68593 | 119.94738 | 11161 ft | 325 kts | 95° |
| 2026-04-26 08:14 | 30.67959 | 119.97172 | 11007 ft | 305 kts | 95° |
| 2026-04-26 08:15 | 30.67101 | 119.99364 | 10877 ft | 301 kts | 112° |
| 2026-04-26 08:15 | 30.65777 | 120.01272 | 10737 ft | 299 kts | 127° |
| 2026-04-26 08:15 | 30.64158 | 120.02750 | 10660 ft | 298 kts | 135° |
| 2026-04-26 08:15 | 30.62463 | 120.04140 | 10377 ft | 298 kts | 135° |
| 2026-04-26 08:16 | 30.61340 | 120.05056 | 10119 ft | 296 kts | 135° |
| 2026-04-26 08:16 | 30.59656 | 120.06436 | 9814 ft | 302 kts | 134° |
| 2026-04-26 08:16 | 30.57924 | 120.07901 | 9705 ft | 312 kts | 133° |
| 2026-04-26 08:16 | 30.56200 | 120.09384 | 9304 ft | 304 kts | 134° |
| 2026-04-26 08:17 | 30.54493 | 120.10821 | 8897 ft | 306 kts | 134° |
| 2026-04-26 08:17 | 30.52761 | 120.12274 | 8564 ft | 306 kts | 135° |
| 2026-04-26 08:17 | 30.50986 | 120.13592 | 8366 ft | 300 kts | 154° |
| 2026-04-26 08:17 | 30.49135 | 120.14681 | 8121 ft | 296 kts | 156° |
| 2026-04-26 08:18 | 30.47241 | 120.15559 | 7804 ft | 292 kts | 162° |
| 2026-04-26 08:18 | 30.45341 | 120.16371 | 7665 ft | 291 kts | 161° |
| 2026-04-26 08:18 | 30.43463 | 120.17227 | 7547 ft | 290 kts | 160° |
| 2026-04-26 08:18 | 30.41593 | 120.18115 | 7426 ft | 289 kts | 159° |
| 2026-04-26 08:19 | 30.39742 | 120.19016 | 7308 ft | 289 kts | 159° |
| 2026-04-26 08:19 | 30.37925 | 120.19912 | 7191 ft | 278 kts | 159° |
| 2026-04-26 08:19 | 30.36191 | 120.20775 | 7056 ft | 266 kts | 159° |
| 2026-04-26 08:19 | 30.34625 | 120.21836 | 6917 ft | 258 kts | 137° |
| 2026-04-26 08:20 | 30.33783 | 120.23568 | 6862 ft | 247 kts | 101° |
| 2026-04-26 08:20 | 30.33920 | 120.25512 | 6703 ft | 243 kts | 68° |
| 2026-04-26 08:20 | 30.34607 | 120.27301 | 6552 ft | 244 kts | 63° |
| 2026-04-26 08:20 | 30.35349 | 120.29066 | 6371 ft | 245 kts | 63° |
| 2026-04-26 08:21 | 30.36085 | 120.30842 | 6234 ft | 244 kts | 63° |
| 2026-04-26 08:21 | 30.36817 | 120.32624 | 6078 ft | 243 kts | 63° |
| 2026-04-26 08:21 | 30.37538 | 120.34389 | 5923 ft | 242 kts | 64° |
| 2026-04-26 08:21 | 30.38243 | 120.36127 | 5790 ft | 241 kts | 64° |
| 2026-04-26 08:22 | 30.38953 | 120.37882 | 5620 ft | 240 kts | 64° |
| 2026-04-26 08:22 | 30.39660 | 120.39626 | 5481 ft | 239 kts | 64° |
| 2026-04-26 08:22 | 30.40358 | 120.41359 | 5314 ft | 237 kts | 63° |
| 2026-04-26 08:22 | 30.41057 | 120.43088 | 5195 ft | 237 kts | 64° |
| 2026-04-26 08:23 | 30.41753 | 120.44813 | 5037 ft | 235 kts | 64° |
| 2026-04-26 08:23 | 30.42445 | 120.46526 | 4894 ft | 235 kts | 64° |
| 2026-04-26 08:23 | 30.43133 | 120.48233 | 4763 ft | 233 kts | 64° |
| 2026-04-26 08:23 | 30.43819 | 120.49934 | 4593 ft | 233 kts | 64° |
| 2026-04-26 08:24 | 30.44420 | 120.51672 | 4451 ft | 233 kts | 75° |
| 2026-04-26 08:24 | 30.44495 | 120.53531 | 4312 ft | 232 kts | 101° |
| 2026-04-26 08:24 | 30.43859 | 120.55223 | 4169 ft | 231 kts | 128° |
| 2026-04-26 08:24 | 30.42719 | 120.56521 | 4023 ft | 230 kts | 142° |
| 2026-04-26 08:25 | 30.41463 | 120.57665 | 3888 ft | 230 kts | 143° |
| 2026-04-26 08:25 | 30.40201 | 120.58803 | 3747 ft | 229 kts | 143° |
| 2026-04-26 08:25 | 30.38948 | 120.59944 | 3596 ft | 229 kts | 142° |
| 2026-04-26 08:25 | 30.37704 | 120.61084 | 3463 ft | 228 kts | 142° |
| 2026-04-26 08:26 | 30.36463 | 120.62224 | 3319 ft | 227 kts | 143° |
| 2026-04-26 08:26 | 30.35112 | 120.63152 | 3151 ft | 226 kts | 159° |
| 2026-04-26 08:26 | 30.33585 | 120.63437 | 3094 ft | 223 kts | 190° |
| 2026-04-26 08:26 | 30.32224 | 120.62705 | 3057 ft | 211 kts | 219° |
| 2026-04-26 08:27 | 30.31269 | 120.61515 | 2985 ft | 195 kts | 237° |
| 2026-04-26 08:27 | 30.30656 | 120.60190 | 2923 ft | 180 kts | 244° |
| 2026-04-26 08:27 | 30.30082 | 120.58940 | 2817 ft | 170 kts | 241° |
| 2026-04-26 08:27 | 30.29507 | 120.57778 | 2559 ft | 167 kts | 244° |
| 2026-04-26 08:28 | 30.28921 | 120.56609 | 2233 ft | 169 kts | 241° |
| 2026-04-26 08:28 | 30.28307 | 120.55424 | 1856 ft | 174 kts | 238° |
| 2026-04-26 08:28 | 30.27682 | 120.54273 | 1687 ft | 161 kts | 239° |
| 2026-04-26 08:28 | 30.27177 | 120.53176 | 1494 ft | 150 kts | 246° |
| 2026-04-26 08:29 | 30.26774 | 120.52097 | 1290 ft | 141 kts | 246° |
| 2026-04-26 08:29 | 30.26359 | 120.51093 | 1155 ft | 138 kts | 244° |
| 2026-04-26 08:29 | 30.25899 | 120.50107 | 997 ft | 140 kts | 241° |
| 2026-04-26 08:29 | 30.25444 | 120.49106 | 830 ft | 142 kts | 243° |
| 2026-04-26 08:30 | 30.25006 | 120.48086 | 630 ft | 140 kts | 244° |
| 2026-04-26 08:30 | 30.24563 | 120.47078 | 407 ft | 140 kts | 243° |
| 2026-04-26 08:30 | 30.24119 | 120.46073 | 256 ft | 141 kts | 243° |
| 2026-04-26 08:30 | 30.23672 | 120.45063 | 59 ft | 142 kts | 241° |
| 2026-04-26 08:31 | 30.23251 | 120.44123 | 37 ft | 117 kts | 244° |
| 2026-04-26 08:31 | 30.23005 | 120.43557 | 41 ft | 40 kts | 243° |
| 2026-04-26 08:31 | 30.22921 | 120.43368 | 40 ft | 26 kts | 243° |
| 2026-04-26 08:31 | 30.22872 | 120.43168 | 39 ft | 26 kts | 265° |
| 2026-04-26 08:32 | 30.22882 | 120.43004 | 38 ft | 16 kts | 295° |
| 2026-04-26 08:32 | 30.22976 | 120.42940 | 38 ft | 13 kts | 349° |
| 2026-04-26 08:32 | 30.23034 | 120.42989 | 38 ft | 12 kts | 62° |
| 2026-04-26 08:32 | 30.23076 | 120.43085 | 38 ft | 15 kts | 63° |
| 2026-04-26 08:33 | 30.23126 | 120.43197 | 38 ft | 17 kts | 63° |
| 2026-04-26 08:33 | 30.23175 | 120.43306 | 38 ft | 19 kts | 63° |
| 2026-04-26 08:33 | 30.23238 | 120.43450 | 38 ft | 21 kts | 63° |
| 2026-04-26 08:33 | 30.23311 | 120.43610 | 38 ft | 23 kts | 62° |
| 2026-04-26 08:34 | 30.23378 | 120.43758 | 38 ft | 14 kts | 64° |
| 2026-04-26 08:34 | 30.23422 | 120.43862 | 39 ft | 16 kts | 63° |
| 2026-04-26 08:34 | 30.23485 | 120.43951 | 38 ft | 13 kts | 7° |
| 2026-04-26 08:34 | 30.23557 | 120.43915 | 38 ft | 15 kts | 333° |
| 2026-04-26 08:35 | 30.23657 | 120.43857 | 38 ft | 17 kts | 333° |
| 2026-04-26 08:35 | 30.23772 | 120.43790 | 38 ft | 20 kts | 333° |
| 2026-04-26 08:35 | 30.23903 | 120.43717 | 37 ft | 22 kts | 334° |
| 2026-04-26 08:35 | 30.24048 | 120.43629 | 38 ft | 24 kts | 333° |
| 2026-04-26 08:36 | 30.24187 | 120.43547 | 38 ft | 26 kts | 333° |
| 2026-04-26 08:36 | 30.24351 | 120.43451 | 38 ft | 27 kts | 333° |
| 2026-04-26 08:36 | 30.24473 | 120.43380 | 38 ft | 15 kts | 333° |
| 2026-04-26 08:36 | 30.24524 | 120.43289 | 38 ft | 15 kts | 255° |
| 2026-04-26 08:37 | 30.24475 | 120.43174 | 38 ft | 17 kts | 243° |
| 2026-04-26 08:37 | 30.24418 | 120.43039 | 38 ft | 20 kts | 243° |
| 2026-04-26 08:37 | 30.24349 | 120.42890 | 38 ft | 22 kts | 241° |
| 2026-04-26 08:37 | 30.24273 | 120.42726 | 38 ft | 24 kts | 243° |
| 2026-04-26 08:38 | 30.24193 | 120.42547 | 38 ft | 26 kts | 243° |
| 2026-04-26 08:38 | 30.24118 | 120.42379 | 38 ft | 22 kts | 243° |
| 2026-04-26 08:38 | 30.24051 | 120.42231 | 38 ft | 20 kts | 242° |
| 2026-04-26 08:38 | 30.23996 | 120.42122 | 38 ft | 10 kts | 220° |
| 2026-04-26 08:39 | 30.23944 | 120.42121 | 38 ft | 6 kts | 161° |
| 2026-04-26 08:39 | 30.23909 | 120.42141 | 38 ft | 5 kts | 153° |
| 2026-04-26 08:39 | 30.23883 | 120.42156 | 37 ft | 4 kts | 153° |
| 2026-04-26 08:39 | 30.23862 | 120.42167 | 38 ft | 4 kts | 153° |
| 2026-04-26 08:40 | 30.23837 | 120.42182 | 38 ft | 5 kts | 154° |
| 2026-04-26 08:40 | 30.23806 | 120.42200 | 38 ft | 5 kts | 153° |
| 2026-04-26 08:40 | 30.23769 | 120.42221 | 38 ft | 6 kts | 154° |
| 2026-04-26 08:40 | 30.23727 | 120.42218 | 38 ft | 6 kts | 210° |
| 2026-04-26 08:41 | 30.23701 | 120.42179 | 38 ft | 6 kts | 241° |
| 2026-04-26 08:41 | 30.23690 | 120.42156 | 37 ft | 0 kts | 243° |
| 2026-04-26 08:41 | 30.23690 | 120.42155 | 37 ft | 0 kts | 243° |